Time,TemperatureF,DewpointF,PressureIn,WindDirection,WindDirectionDegrees,WindSpeedMPH,WindSpeedGustMPH,Humidity,HourlyPrecipIn,Conditions,Clouds,dailyrainin,SoftwareType,DateUTC
2013-02-10 00:00:00,41.2,37.6,29.53,SSE,152,1.0,1.0,87,0.00,CLR,SCT,0.12,WeatherDisplay:10.37,2013-02-10 05:00:00,
2013-02-10 00:05:00,41.4,37.8,29.53,SSE,149,3.0,3.0,87,0.00,CLR,SCT,0.12,WeatherDisplay:10.37,2013-02-10 05:05:00,
2013-02-10 00:08:00,41.4,37.8,29.55,SE,135,0.0,0.0,87,0.00,CLR,SCT,0.12,WeatherDisplay:10.37,2013-02-10 05:08:00,
2013-02-10 00:10:00,41.4,37.8,29.55,SE,146,3.0,3.0,87,0.00,CLR,SCT,0.12,WeatherDisplay:10.37,2013-02-10 05:10:00,
2013-02-10 00:13:00,41.4,37.8,29.55,SE,135,6.9,6.9,87,0.00,CLR,SCT,0.12,WeatherDisplay:10.37,2013-02-10 05:13:00,
2013-02-10 00:14:00,41.4,37.8,29.52,SE,135,1.3,1.3,87,0.00,CLR,SCT,0.12,WeatherDisplay:10.37,2013-02-10 05:14:00,
2013-02-10 00:16:00,41.4,37.8,29.52,SE,135,1.3,1.3,87,0.00,CLR,SCT,0.12,WeatherDisplay:10.37,2013-02-10 05:16:00,
2013-02-10 00:20:00,41.5,38.0,29.52,SE,138,3.0,4.0,87,0.00,CLR,SCT,0.12,WeatherDisplay:10.37,2013-02-10 05:20:00,
2013-02-10 00:22:00,41.7,38.1,29.52,SSE,158,3.5,3.5,87,0.00,CLR,SCT,0.12,WeatherDisplay:10.37,2013-02-10 05:22:00,
2013-02-10 00:25:00,41.7,38.1,29.52,SE,135,1.1,1.1,87,0.00,CLR,SCT,0.12,WeatherDisplay:10.37,2013-02-10 05:25:00,
2013-02-10 00:28:00,41.7,38.1,29.52,SSE,158,2.3,2.3,87,0.00,CLR,SCT,0.12,WeatherDisplay:10.37,2013-02-10 05:28:00,
2013-02-10 00:30:00,41.7,38.1,29.52,SSE,156,3.0,4.0,87,0.00,CLR,SCT,0.12,WeatherDisplay:10.37,2013-02-10 05:30:00,
2013-02-10 00:33:00,41.9,38.3,29.55,SSE,158,1.3,1.3,87,0.00,CLR,SCT,0.12,WeatherDisplay:10.37,2013-02-10 05:33:00,
2013-02-10 00:35:00,41.9,38.3,29.55,SSE,158,7.0,8.0,87,0.00,CLR,SCT,0.12,WeatherDisplay:10.37,2013-02-10 05:35:00,
2013-02-10 00:36:00,41.9,38.3,29.55,SSE,158,8.1,8.1,87,0.00,CLR,SCT,0.12,WeatherDisplay:10.37,2013-02-10 05:36:00,
2013-02-10 00:40:00,42.1,38.5,29.55,SSE,159,0.0,3.0,87,0.00,CLR,SCT,0.12,WeatherDisplay:10.37,2013-02-10 05:40:00,
2013-02-10 00:41:00,42.1,38.5,29.52,SSW,202,0.0,0.0,87,0.00,CLR,SCT,0.12,WeatherDisplay:10.37,2013-02-10 05:41:00,
2013-02-10 00:42:00,42.1,38.5,29.52,SE,135,1.1,1.1,87,0.00,CLR,SCT,0.12,WeatherDisplay:10.37,2013-02-10 05:42:00,
2013-02-10 00:45:00,42.3,38.7,29.55,SSE,161,0.0,1.0,87,0.00,CLR,SCT,0.12,WeatherDisplay:10.37,2013-02-10 05:45:00,
2013-02-10 00:46:00,42.3,38.7,29.52,SSE,158,0.0,0.0,87,0.00,CLR,SCT,0.12,WeatherDisplay:10.37,2013-02-10 05:46:00,
2013-02-10 00:49:00,42.4,38.8,29.52,SSE,158,0.0,0.0,87,0.00,CLR,SCT,0.12,WeatherDisplay:10.37,2013-02-10 05:49:00,
2013-02-10 00:50:00,42.4,38.8,29.52,SSE,159,0.0,0.0,87,0.00,CLR,SCT,0.12,WeatherDisplay:10.37,2013-02-10 05:50:00,
2013-02-10 00:55:00,42.6,39.3,29.55,SW,225,1.3,1.3,88,0.00,CLR,SCT,0.12,WeatherDisplay:10.37,2013-02-10 05:55:00,
2013-02-10 00:56:00,42.8,39.5,29.55,South,180,1.1,1.1,88,0.00,CLR,SCT,0.12,WeatherDisplay:10.37,2013-02-10 05:56:00,
2013-02-10 00:57:00,42.8,39.5,29.55,South,180,0.0,0.4,88,0.00,CLR,SCT,0.12,WeatherDisplay:10.37,2013-02-10 05:57:00,
2013-02-10 00:58:00,43.0,39.4,29.55,SE,135,1.3,1.3,87,0.00,CLR,SCT,0.12,WeatherDisplay:10.37,2013-02-10 05:58:00,
2013-02-10 01:03:00,43.0,39.4,29.55,SSE,158,0.0,0.0,87,0.00,RA,SCT,0.00,WeatherDisplay:10.37,2013-02-10 06:03:00,
2013-02-10 01:04:00,43.0,39.4,29.55,SSE,158,0.0,0.0,87,0.00,RA,SCT,0.00,WeatherDisplay:10.37,2013-02-10 06:04:00,
2013-02-10 01:06:00,43.2,39.6,29.55,SE,135,2.5,2.5,87,0.00,RA,SCT,0.00,WeatherDisplay:10.37,2013-02-10 06:06:00,
2013-02-10 01:09:00,43.3,39.7,29.51,SE,135,9.2,9.2,87,0.00,RA,SCT,0.00,WeatherDisplay:10.37,2013-02-10 06:09:00,
2013-02-10 01:11:00,43.3,39.7,29.51,SSE,158,1.1,1.1,87,0.00,CLR,SCT,0.00,WeatherDisplay:10.37,2013-02-10 06:11:00,
2013-02-10 01:12:00,43.3,39.7,29.51,SSE,158,15.4,15.4,87,0.00,CLR,SCT,0.00,WeatherDisplay:10.37,2013-02-10 06:12:00,
2013-02-10 01:14:00,43.3,39.7,29.51,SSE,158,10.5,10.5,87,0.00,CLR,SCT,0.00,WeatherDisplay:10.37,2013-02-10 06:14:00,
2013-02-10 01:15:00,43.3,39.7,29.50,South,180,10.4,10.4,87,0.00,CLR,SCT,0.00,WeatherDisplay:10.37,2013-02-10 06:15:00,
2013-02-10 01:17:00,43.5,39.9,29.51,SSE,158,10.5,10.5,87,0.00,CLR,SCT,0.00,WeatherDisplay:10.37,2013-02-10 06:17:00,
2013-02-10 01:20:00,43.5,39.9,29.51,SSE,166,7.0,13.0,87,0.00,CLR,SCT,0.00,WeatherDisplay:10.37,2013-02-10 06:20:00,
2013-02-10 01:22:00,43.5,39.9,29.50,SE,135,1.6,1.6,87,0.00,CLR,SCT,0.00,WeatherDisplay:10.37,2013-02-10 06:22:00,
2013-02-10 01:24:00,43.7,40.1,29.50,SE,135,8.5,8.5,87,0.00,CLR,SCT,0.00,WeatherDisplay:10.37,2013-02-10 06:24:00,
2013-02-10 01:25:00,43.7,40.1,29.50,SE,135,8.1,8.1,87,0.00,CLR,SCT,0.00,WeatherDisplay:10.37,2013-02-10 06:25:00,
2013-02-10 01:27:00,43.7,40.1,29.50,SSE,158,15.0,15.0,87,0.00,CLR,SCT,0.00,WeatherDisplay:10.37,2013-02-10 06:27:00,
2013-02-10 01:30:00,43.9,40.3,29.49,SSE,161,3.0,15.0,87,0.00,CLR,SCT,0.00,WeatherDisplay:10.37,2013-02-10 06:30:00,
2013-02-10 01:33:00,43.9,40.3,29.49,SSE,158,10.7,10.7,87,0.00,CLR,SCT,0.00,WeatherDisplay:10.37,2013-02-10 06:33:00,
2013-02-10 01:35:00,43.9,40.3,29.49,SE,135,0.4,0.4,87,0.00,CLR,SCT,0.00,WeatherDisplay:10.37,2013-02-10 06:35:00,
2013-02-10 01:37:00,43.9,40.3,29.49,SE,135,0.0,0.0,87,0.00,CLR,SCT,0.00,WeatherDisplay:10.37,2013-02-10 06:37:00,
2013-02-10 01:38:00,43.9,40.3,29.49,SE,135,0.0,0.0,87,0.00,CLR,SCT,0.00,WeatherDisplay:10.37,2013-02-10 06:38:00,
2013-02-10 01:40:00,44.1,40.4,29.49,SSE,148,7.0,12.0,87,0.00,CLR,SCT,0.00,WeatherDisplay:10.37,2013-02-10 06:40:00,
2013-02-10 01:45:00,44.2,40.3,29.49,SSE,152,0.0,10.0,86,0.00,CLR,SCT,0.00,WeatherDisplay:10.37,2013-02-10 06:45:00,
2013-02-10 01:48:00,44.2,40.3,29.49,SSE,158,1.3,1.3,86,0.00,CLR,SCT,0.00,WeatherDisplay:10.37,2013-02-10 06:48:00,
2013-02-10 01:49:00,44.2,40.3,29.49,SSE,158,1.3,1.3,86,0.00,CLR,SCT,0.00,WeatherDisplay:10.37,2013-02-10 06:49:00,
2013-02-10 01:53:00,44.4,40.8,29.49,SSE,158,2.3,2.3,87,0.00,CLR,SCT,0.00,WeatherDisplay:10.37,2013-02-10 06:53:00,
2013-02-10 01:55:00,44.4,40.8,29.49,SSE,156,1.0,2.0,87,0.00,CLR,SCT,0.00,WeatherDisplay:10.37,2013-02-10 06:55:00,
2013-02-10 01:57:00,44.4,40.5,29.49,SSW,202,1.1,1.1,86,0.00,CLR,SCT,0.00,WeatherDisplay:10.37,2013-02-10 06:57:00,
2013-02-10 01:59:00,44.8,41.1,29.49,SE,135,1.6,1.6,87,0.00,CLR,SCT,0.00,WeatherDisplay:10.37,2013-02-10 06:59:00,
2013-02-10 02:00:00,44.8,41.1,29.49,SE,135,1.6,1.6,87,0.00,CLR,SCT,0.00,WeatherDisplay:10.37,2013-02-10 07:00:00,
2013-02-10 02:03:00,44.8,40.8,29.48,SSE,158,4.6,4.6,86,0.00,CLR,SCT,0.00,WeatherDisplay:10.37,2013-02-10 07:03:00,
2013-02-10 02:05:00,44.8,40.8,29.48,SSE,152,3.0,5.0,86,0.00,CLR,SCT,0.00,WeatherDisplay:10.37,2013-02-10 07:05:00,
2013-02-10 02:06:00,44.8,40.8,29.48,SE,135,3.5,3.8,86,0.00,CLR,SCT,0.00,WeatherDisplay:10.37,2013-02-10 07:06:00,
2013-02-10 02:10:00,44.8,41.1,29.48,SSE,149,1.0,2.0,87,0.00,CLR,SCT,0.00,WeatherDisplay:10.37,2013-02-10 07:10:00,
2013-02-10 02:14:00,44.8,41.1,29.48,SSE,158,4.6,4.6,87,0.00,CLR,SCT,0.00,WeatherDisplay:10.37,2013-02-10 07:14:00,
2013-02-10 02:16:00,45.0,41.3,29.48,ESE,112,3.8,3.8,87,0.00,CLR,SCT,0.00,WeatherDisplay:10.37,2013-02-10 07:16:00,
2013-02-10 02:19:00,45.0,41.0,29.48,SSE,158,2.3,2.3,86,0.00,CLR,SCT,0.00,WeatherDisplay:10.37,2013-02-10 07:19:00,
2013-02-10 02:22:00,45.0,41.0,29.47,SSE,158,1.6,1.6,86,0.00,CLR,SCT,0.00,WeatherDisplay:10.37,2013-02-10 07:22:00,
2013-02-10 02:23:00,45.0,41.0,29.47,SE,135,1.1,0.0,86,0.00,CLR,SCT,0.00,WeatherDisplay:10.37,2013-02-10 07:23:00,
2013-02-10 02:25:00,45.0,41.3,29.50,SE,137,1.0,4.0,87,0.00,CLR,SCT,0.00,WeatherDisplay:10.37,2013-02-10 07:25:00,
2013-02-10 02:28:00,45.1,41.5,29.50,SSE,158,11.6,11.6,87,0.00,CLR,SCT,0.00,WeatherDisplay:10.37,2013-02-10 07:28:00,
2013-02-10 02:30:00,45.1,41.5,29.50,SE,140,3.0,12.0,87,0.00,CLR,SCT,0.00,WeatherDisplay:10.37,2013-02-10 07:30:00,
2013-02-10 02:31:00,45.1,41.5,29.46,SE,135,11.5,11.5,87,0.00,CLR,SCT,0.00,WeatherDisplay:10.37,2013-02-10 07:31:00,
2013-02-10 02:35:00,45.3,41.7,29.46,South,180,1.1,1.1,87,0.00,CLR,SCT,0.00,WeatherDisplay:10.37,2013-02-10 07:35:00,
2013-02-10 02:37:00,45.3,41.7,29.46,NE,45,1.1,1.1,87,0.00,CLR,SCT,0.00,WeatherDisplay:10.37,2013-02-10 07:37:00,
2013-02-10 02:38:00,45.3,41.7,29.46,SE,135,12.1,12.1,87,0.00,CLR,SCT,0.00,WeatherDisplay:10.37,2013-02-10 07:38:00,
2013-02-10 02:42:00,45.5,41.9,29.46,SE,135,2.5,2.5,87,0.00,CLR,SCT,0.00,WeatherDisplay:10.37,2013-02-10 07:42:00,
2013-02-10 02:43:00,45.7,42.0,29.46,SSW,202,9.4,9.4,87,0.00,CLR,SCT,0.00,WeatherDisplay:10.37,2013-02-10 07:43:00,
2013-02-10 02:44:00,45.7,42.0,29.45,SE,135,1.6,1.6,87,0.00,CLR,SCT,0.00,WeatherDisplay:10.37,2013-02-10 07:44:00,
2013-02-10 02:47:00,45.7,42.0,29.45,ESE,112,1.3,1.3,87,0.00,CLR,SCT,0.00,WeatherDisplay:10.37,2013-02-10 07:47:00,
2013-02-10 02:48:00,45.7,42.0,29.45,South,180,0.0,0.0,87,0.00,CLR,SCT,0.00,WeatherDisplay:10.37,2013-02-10 07:48:00,
2013-02-10 02:50:00,45.9,42.2,29.45,SSE,158,9.2,9.2,87,0.00,CLR,SCT,0.00,WeatherDisplay:10.37,2013-02-10 07:50:00,
2013-02-10 02:51:00,45.9,42.2,29.47,SSE,158,9.4,9.4,87,0.00,CLR,SCT,0.00,WeatherDisplay:10.37,2013-02-10 07:51:00,
2013-02-10 02:54:00,46.0,42.4,29.45,SE,135,2.7,2.7,87,0.00,CLR,SCT,0.00,WeatherDisplay:10.37,2013-02-10 07:54:00,
2013-02-10 02:56:00,46.0,42.4,29.47,SE,135,2.3,2.3,87,0.00,CLR,SCT,0.00,WeatherDisplay:10.37,2013-02-10 07:56:00,
2013-02-10 02:58:00,46.0,42.4,29.47,SE,135,2.3,2.3,87,0.00,CLR,SCT,0.00,WeatherDisplay:10.37,2013-02-10 07:58:00,
2013-02-10 03:00:00,46.0,42.4,29.44,SSE,147,3.0,13.0,87,0.00,CLR,SCT,0.00,WeatherDisplay:10.37,2013-02-10 08:00:00,
2013-02-10 03:01:00,46.0,42.4,29.44,SE,135,6.9,6.9,87,0.00,CLR,SCT,0.00,WeatherDisplay:10.37,2013-02-10 08:01:00,
2013-02-10 03:02:00,46.0,42.4,29.44,SE,135,2.3,2.3,87,0.00,CLR,SCT,0.00,WeatherDisplay:10.37,2013-02-10 08:02:00,
2013-02-10 03:05:00,46.2,42.6,29.43,SE,135,3.0,3.0,87,0.00,CLR,SCT,0.00,WeatherDisplay:10.37,2013-02-10 08:05:00,
2013-02-10 03:07:00,46.2,42.6,29.42,SSE,158,7.2,7.2,87,0.00,CLR,SCT,0.00,WeatherDisplay:10.37,2013-02-10 08:07:00,
2013-02-10 03:10:00,46.2,42.6,29.42,SE,140,10.0,17.0,87,0.00,CLR,SCT,0.00,WeatherDisplay:10.37,2013-02-10 08:10:00,
2013-02-10 03:13:00,46.6,42.9,29.41,SE,135,15.0,15.0,87,0.00,CLR,SCT,0.00,WeatherDisplay:10.37,2013-02-10 08:13:00,
2013-02-10 03:14:00,46.6,42.9,29.41,SE,135,3.5,3.5,87,0.00,CLR,SCT,0.00,WeatherDisplay:10.37,2013-02-10 08:14:00,
2013-02-10 03:15:00,46.6,42.9,29.41,SE,135,3.5,3.5,87,0.00,CLR,SCT,0.00,WeatherDisplay:10.37,2013-02-10 08:15:00,
2013-02-10 03:17:00,46.6,42.9,29.41,SE,135,1.1,1.1,87,0.00,CLR,SCT,0.00,WeatherDisplay:10.37,2013-02-10 08:17:00,
2013-02-10 03:19:00,46.6,42.9,29.40,ESE,112,4.0,4.0,87,0.00,CLR,SCT,0.00,WeatherDisplay:10.37,2013-02-10 08:19:00,
2013-02-10 03:21:00,46.8,43.1,29.40,SSE,158,3.6,3.6,87,0.00,CLR,SCT,0.00,WeatherDisplay:10.37,2013-02-10 08:21:00,
2013-02-10 03:23:00,46.9,43.3,29.42,SSE,158,10.7,10.7,87,0.00,CLR,SCT,0.00,WeatherDisplay:10.37,2013-02-10 08:23:00,
2013-02-10 03:25:00,46.9,43.3,29.40,SE,141,6.0,12.0,87,0.00,CLR,SCT,0.00,WeatherDisplay:10.37,2013-02-10 08:25:00,
2013-02-10 03:27:00,47.1,43.4,29.39,SSE,158,15.4,15.4,87,0.00,CLR,SCT,0.00,WeatherDisplay:10.37,2013-02-10 08:27:00,
2013-02-10 03:29:00,47.1,43.4,29.39,East,90,17.3,17.3,87,0.00,CLR,SCT,0.00,WeatherDisplay:10.37,2013-02-10 08:29:00,
2013-02-10 03:31:00,47.1,43.4,29.39,South,180,11.8,11.8,87,0.00,CLR,SCT,0.00,WeatherDisplay:10.37,2013-02-10 08:31:00,
2013-02-10 03:35:00,47.3,43.6,29.38,SSE,155,7.0,15.0,87,0.00,CLR,SCT,0.00,WeatherDisplay:10.37,2013-02-10 08:35:00,
2013-02-10 03:38:00,47.5,43.8,29.39,SSE,158,2.5,2.5,87,0.00,CLR,SCT,0.00,WeatherDisplay:10.37,2013-02-10 08:38:00,
2013-02-10 03:39:00,47.5,43.8,29.39,SSE,158,2.5,2.5,87,0.00,CLR,SCT,0.00,WeatherDisplay:10.37,2013-02-10 08:39:00,
2013-02-10 03:40:00,47.5,43.8,29.39,SSE,165,6.0,7.0,87,0.00,CLR,SCT,0.00,WeatherDisplay:10.37,2013-02-10 08:40:00,
2013-02-10 03:43:00,47.5,43.8,29.40,South,180,0.0,0.0,87,0.00,CLR,SCT,0.00,WeatherDisplay:10.37,2013-02-10 08:43:00,
2013-02-10 03:45:00,47.5,43.8,29.41,South,172,5.0,9.0,87,0.00,CLR,SCT,0.00,WeatherDisplay:10.37,2013-02-10 08:45:00,
2013-02-10 03:46:00,47.8,44.2,29.41,South,180,12.1,12.1,87,0.00,CLR,SCT,0.00,WeatherDisplay:10.37,2013-02-10 08:46:00,
2013-02-10 03:48:00,47.8,44.2,29.40,SE,135,3.5,3.5,87,0.00,CLR,SCT,0.00,WeatherDisplay:10.37,2013-02-10 08:48:00,
2013-02-10 03:49:00,47.8,44.2,29.42,SE,135,3.8,3.8,87,0.00,CLR,SCT,0.00,WeatherDisplay:10.37,2013-02-10 08:49:00,
2013-02-10 03:54:00,47.8,44.2,29.40,SW,225,12.7,12.7,87,0.00,CLR,SCT,0.00,WeatherDisplay:10.37,2013-02-10 08:54:00,
2013-02-10 03:55:00,47.8,44.2,29.41,WSW,248,1.1,1.1,87,0.00,CLR,SCT,0.00,WeatherDisplay:10.37,2013-02-10 08:55:00,
2013-02-10 03:59:00,48.0,44.3,29.42,SSE,158,4.6,4.6,87,0.00,CLR,SCT,0.00,WeatherDisplay:10.37,2013-02-10 08:59:00,
2013-02-10 04:00:00,48.0,44.3,29.44,South,186,5.0,5.0,87,0.00,CLR,SCT,0.00,WeatherDisplay:10.37,2013-02-10 09:00:00,
2013-02-10 04:01:00,48.0,44.3,29.41,SSW,202,12.1,12.1,87,0.00,CLR,SCT,0.00,WeatherDisplay:10.37,2013-02-10 09:01:00,
2013-02-10 04:05:00,48.2,44.5,29.42,South,190,2.0,12.0,87,0.00,CLR,SCT,0.00,WeatherDisplay:10.37,2013-02-10 09:05:00,
2013-02-10 04:08:00,48.4,44.7,29.42,South,180,0.0,0.0,87,0.00,CLR,SCT,0.00,WeatherDisplay:10.37,2013-02-10 09:08:00,
2013-02-10 04:10:00,48.6,44.9,29.42,SSW,193,0.0,0.0,87,0.00,CLR,SCT,0.00,WeatherDisplay:10.37,2013-02-10 09:10:00,
2013-02-10 04:12:00,48.6,44.9,29.42,South,180,0.0,0.0,87,0.00,CLR,SCT,0.00,WeatherDisplay:10.37,2013-02-10 09:12:00,
2013-02-10 04:15:00,48.7,45.0,29.42,SE,135,0.0,0.0,87,0.00,CLR,SCT,0.00,WeatherDisplay:10.37,2013-02-10 09:15:00,
2013-02-10 04:17:00,48.7,45.0,29.41,SSE,158,1.6,1.6,87,0.00,CLR,SCT,0.00,WeatherDisplay:10.37,2013-02-10 09:17:00,
2013-02-10 04:18:00,48.7,45.0,29.41,SSE,158,1.6,1.6,87,0.00,CLR,SCT,0.00,WeatherDisplay:10.37,2013-02-10 09:18:00,
2013-02-10 04:20:00,48.7,45.0,29.41,SSE,160,3.0,8.0,87,0.00,CLR,SCT,0.00,WeatherDisplay:10.37,2013-02-10 09:20:00,
2013-02-10 04:22:00,48.7,45.0,29.41,SSE,158,11.5,11.5,87,0.00,CLR,SCT,0.00,WeatherDisplay:10.37,2013-02-10 09:22:00,
2013-02-10 04:25:00,48.9,45.2,29.40,SSE,160,5.0,12.0,87,0.00,CLR,SCT,0.00,WeatherDisplay:10.37,2013-02-10 09:25:00,
2013-02-10 04:28:00,48.9,45.2,29.40,South,180,6.9,6.9,87,0.00,CLR,SCT,0.00,WeatherDisplay:10.37,2013-02-10 09:28:00,
2013-02-10 04:29:00,48.9,45.2,29.42,South,180,1.1,1.1,87,0.00,CLR,SCT,0.00,WeatherDisplay:10.37,2013-02-10 09:29:00,
2013-02-10 04:31:00,48.9,45.2,29.42,SSE,158,3.5,3.5,87,0.00,CLR,SCT,0.00,WeatherDisplay:10.37,2013-02-10 09:31:00,
2013-02-10 04:32:00,48.9,45.2,29.42,SSE,158,3.5,3.5,87,0.00,CLR,SCT,0.00,WeatherDisplay:10.37,2013-02-10 09:32:00,
2013-02-10 04:36:00,48.9,45.2,29.42,SE,135,3.5,3.5,87,0.00,CLR,SCT,0.00,WeatherDisplay:10.37,2013-02-10 09:36:00,
2013-02-10 04:37:00,48.9,45.2,29.42,SE,135,3.5,3.5,87,0.00,CLR,SCT,0.00,WeatherDisplay:10.37,2013-02-10 09:37:00,
2013-02-10 04:40:00,48.9,45.2,29.41,SSE,153,1.0,3.0,87,0.02,RA,SCT,0.02,WeatherDisplay:10.37,2013-02-10 09:40:00,
2013-02-10 04:42:00,48.9,45.2,29.41,West,270,0.0,0.0,87,0.04,RA,SCT,0.04,WeatherDisplay:10.37,2013-02-10 09:42:00,
2013-02-10 04:43:00,48.9,45.2,29.44,West,270,0.0,0.0,87,0.04,RA,SCT,0.04,WeatherDisplay:10.37,2013-02-10 09:43:00,
2013-02-10 04:45:00,48.9,45.2,29.43,WNW,292,0.0,0.0,87,0.06,RA,SCT,0.06,WeatherDisplay:10.37,2013-02-10 09:45:00,
2013-02-10 04:47:00,48.7,45.3,29.43,South,180,3.8,3.8,88,0.08,RA,SCT,0.08,WeatherDisplay:10.37,2013-02-10 09:47:00,
2013-02-10 04:50:00,48.7,45.3,29.41,South,170,5.0,5.0,88,0.00,RA,SCT,0.41,WeatherDisplay:10.37,2013-02-10 09:50:00,
2013-02-10 04:51:00,48.7,45.3,29.40,SSE,158,12.1,12.1,88,0.41,RA,SCT,0.41,WeatherDisplay:10.37,2013-02-10 09:51:00,
2013-02-10 04:52:00,48.7,45.3,29.40,SSE,158,10.4,10.4,88,0.41,RA,SCT,0.41,WeatherDisplay:10.37,2013-02-10 09:52:00,
2013-02-10 04:55:00,48.7,45.3,29.39,ESE,112,1.1,1.3,88,0.41,RA,SCT,0.41,WeatherDisplay:10.37,2013-02-10 09:55:00,
2013-02-10 04:56:00,48.7,45.3,29.39,ESE,112,1.3,1.3,88,0.41,RA,SCT,0.41,WeatherDisplay:10.37,2013-02-10 09:56:00,
2013-02-10 04:57:00,48.7,45.3,29.40,SSE,158,2.3,2.3,88,0.43,RA,SCT,0.43,WeatherDisplay:10.37,2013-02-10 09:57:00,
2013-02-10 05:00:00,48.6,45.2,29.40,South,180,6.9,6.9,88,0.45,RA,SCT,0.45,WeatherDisplay:10.37,2013-02-10 10:00:00,
2013-02-10 05:01:00,48.6,45.2,29.40,SE,135,2.3,2.3,88,0.45,RA,SCT,0.45,WeatherDisplay:10.37,2013-02-10 10:01:00,
2013-02-10 05:02:00,48.6,45.2,29.40,SE,135,2.3,2.3,88,0.45,RA,SCT,0.45,WeatherDisplay:10.37,2013-02-10 10:02:00,
2013-02-10 05:05:00,48.7,45.3,29.42,SE,135,4.6,4.9,88,0.49,RA,SCT,0.49,WeatherDisplay:10.37,2013-02-10 10:05:00,
2013-02-10 05:06:00,48.7,45.3,29.42,SE,135,4.9,4.9,88,0.49,RA,SCT,0.49,WeatherDisplay:10.37,2013-02-10 10:06:00,
2013-02-10 05:07:00,48.7,45.3,29.39,SE,135,4.6,4.9,88,0.49,RA,SCT,0.49,WeatherDisplay:10.37,2013-02-10 10:07:00,
2013-02-10 05:11:00,48.7,45.3,29.39,SSE,158,3.8,3.8,88,0.51,RA,SCT,0.51,WeatherDisplay:10.37,2013-02-10 10:11:00,
2013-02-10 05:12:00,48.7,45.6,29.39,SSE,158,1.1,1.1,89,0.51,RA,SCT,0.51,WeatherDisplay:10.37,2013-02-10 10:12:00,
2013-02-10 05:16:00,48.7,45.6,29.38,SSE,158,3.5,3.5,89,0.53,RA,SCT,0.53,WeatherDisplay:10.37,2013-02-10 10:16:00,
2013-02-10 05:18:00,48.7,45.6,29.38,SSE,158,2.3,2.7,89,0.53,RA,SCT,0.53,WeatherDisplay:10.37,2013-02-10 10:18:00,
2013-02-10 05:21:00,48.9,45.8,29.38,ESE,112,9.2,9.2,89,0.57,RA,SCT,0.57,WeatherDisplay:10.37,2013-02-10 10:21:00,
2013-02-10 05:23:00,48.9,45.8,29.38,SE,135,9.2,9.2,89,0.57,RA,SCT,0.57,WeatherDisplay:10.37,2013-02-10 10:23:00,
2013-02-10 05:26:00,48.9,45.8,29.37,SSE,158,11.5,11.5,89,0.59,RA,SCT,0.59,WeatherDisplay:10.37,2013-02-10 10:26:00,
2013-02-10 05:28:00,48.9,45.8,29.37,SSE,158,6.9,6.9,89,0.59,RA,SCT,0.59,WeatherDisplay:10.37,2013-02-10 10:28:00,
2013-02-10 05:31:00,48.9,45.8,29.37,SE,135,1.1,1.1,89,0.59,RA,SCT,0.61,WeatherDisplay:10.37,2013-02-10 10:31:00,
2013-02-10 05:33:00,48.9,45.8,29.36,East,90,0.0,0.4,89,0.57,RA,SCT,0.61,WeatherDisplay:10.37,2013-02-10 10:33:00,
2013-02-10 05:36:00,48.9,45.8,29.39,SSE,158,2.3,2.3,89,0.55,RA,SCT,0.61,WeatherDisplay:10.37,2013-02-10 10:36:00,
2013-02-10 05:38:00,48.9,45.8,29.36,SE,135,6.9,6.9,89,0.53,RA,SCT,0.61,WeatherDisplay:10.37,2013-02-10 10:38:00,
2013-02-10 05:41:00,49.1,46.0,29.36,ESE,112,0.0,0.4,89,0.55,CLR,SCT,0.61,WeatherDisplay:10.37,2013-02-10 10:41:00,
2013-02-10 05:42:00,49.1,46.0,29.36,ESE,112,0.0,0.4,89,0.55,CLR,SCT,0.61,WeatherDisplay:10.37,2013-02-10 10:42:00,
2013-02-10 05:43:00,49.1,46.0,29.36,SE,135,2.3,2.3,89,0.53,CLR,SCT,0.61,WeatherDisplay:10.37,2013-02-10 10:43:00,
2013-02-10 05:46:00,49.1,46.0,29.36,ESE,112,2.3,2.3,89,0.49,CLR,SCT,0.61,WeatherDisplay:10.37,2013-02-10 10:46:00,
2013-02-10 05:47:00,49.1,46.0,29.36,ESE,112,2.3,2.3,89,0.49,CLR,SCT,0.61,WeatherDisplay:10.37,2013-02-10 10:47:00,
2013-02-10 05:48:00,49.3,46.2,29.36,SSE,158,2.3,2.3,89,0.49,CLR,SCT,0.61,WeatherDisplay:10.37,2013-02-10 10:48:00,
2013-02-10 05:51:00,49.5,46.4,29.39,SSE,158,10.4,10.4,89,0.20,CLR,SCT,0.61,WeatherDisplay:10.37,2013-02-10 10:51:00,
2013-02-10 05:52:00,49.5,46.4,29.39,SSE,158,10.4,10.4,89,0.20,CLR,SCT,0.61,WeatherDisplay:10.37,2013-02-10 10:52:00,
2013-02-10 05:53:00,49.5,46.4,29.36,SSE,158,3.5,3.6,89,0.20,CLR,SCT,0.61,WeatherDisplay:10.37,2013-02-10 10:53:00,
2013-02-10 05:56:00,49.6,46.5,29.36,ESE,112,2.3,2.3,89,0.20,CLR,SCT,0.61,WeatherDisplay:10.37,2013-02-10 10:56:00,
2013-02-10 05:57:00,49.6,46.5,29.35,ESE,112,2.3,2.3,89,0.18,CLR,SCT,0.61,WeatherDisplay:10.37,2013-02-10 10:57:00,
2013-02-10 05:58:00,49.6,46.5,29.35,ESE,112,2.3,2.3,89,0.18,CLR,SCT,0.61,WeatherDisplay:10.37,2013-02-10 10:58:00,
2013-02-10 06:01:00,49.6,46.5,29.34,SE,135,16.1,16.1,89,0.16,CLR,SCT,0.61,WeatherDisplay:10.37,2013-02-10 11:01:00,
2013-02-10 06:02:00,49.6,46.5,29.34,SSE,158,8.3,8.3,89,0.16,CLR,SCT,0.61,WeatherDisplay:10.37,2013-02-10 11:02:00,
2013-02-10 06:03:00,49.6,46.5,29.35,ESE,112,10.4,10.4,89,0.16,CLR,SCT,0.61,WeatherDisplay:10.37,2013-02-10 11:03:00,
2013-02-10 06:06:00,49.6,46.5,29.35,SE,135,6.9,6.9,89,0.12,CLR,SCT,0.61,WeatherDisplay:10.37,2013-02-10 11:06:00,
2013-02-10 06:07:00,49.6,46.5,29.35,SSE,158,2.3,2.3,89,0.12,CLR,SCT,0.61,WeatherDisplay:10.37,2013-02-10 11:07:00,
2013-02-10 06:09:00,49.6,46.5,29.35,SE,135,6.9,6.9,89,0.10,CLR,SCT,0.61,WeatherDisplay:10.37,2013-02-10 11:09:00,
2013-02-10 06:11:00,49.6,46.5,29.35,SE,135,2.3,2.3,89,0.10,CLR,SCT,0.61,WeatherDisplay:10.37,2013-02-10 11:11:00,
2013-02-10 06:12:00,49.6,46.5,29.35,South,180,1.1,1.1,89,0.10,CLR,SCT,0.61,WeatherDisplay:10.37,2013-02-10 11:12:00,
2013-02-10 06:14:00,49.6,46.5,29.35,SSE,158,17.3,17.3,89,0.10,CLR,SCT,0.61,WeatherDisplay:10.37,2013-02-10 11:14:00,
2013-02-10 06:16:00,49.6,46.5,29.35,SSE,158,3.5,3.6,89,0.08,CLR,SCT,0.61,WeatherDisplay:10.37,2013-02-10 11:16:00,
2013-02-10 06:17:00,49.6,46.5,29.35,SSE,158,3.5,3.6,89,0.08,CLR,SCT,0.61,WeatherDisplay:10.37,2013-02-10 11:17:00,
2013-02-10 06:19:00,49.6,46.5,29.35,SE,135,1.1,1.1,89,0.06,CLR,SCT,0.61,WeatherDisplay:10.37,2013-02-10 11:19:00,
2013-02-10 06:21:00,49.6,46.5,29.35,South,180,13.8,13.8,89,0.04,CLR,SCT,0.61,WeatherDisplay:10.37,2013-02-10 11:21:00,
2013-02-10 06:22:00,49.6,46.5,29.35,ESE,112,6.9,6.9,89,0.06,RA,SCT,0.63,WeatherDisplay:10.37,2013-02-10 11:22:00,
2013-02-10 06:24:00,49.6,46.5,29.34,East,90,3.5,3.5,89,0.04,RA,SCT,0.63,WeatherDisplay:10.37,2013-02-10 11:24:00,
2013-02-10 06:26:00,49.8,46.7,29.35,SE,135,3.5,3.6,89,0.04,RA,SCT,0.63,WeatherDisplay:10.37,2013-02-10 11:26:00,
2013-02-10 06:27:00,49.8,46.7,29.35,SE,135,3.5,3.6,89,0.04,RA,SCT,0.63,WeatherDisplay:10.37,2013-02-10 11:27:00,
2013-02-10 06:29:00,49.6,46.5,29.36,SSE,158,17.3,17.3,89,0.04,RA,SCT,0.63,WeatherDisplay:10.37,2013-02-10 11:29:00,
2013-02-10 06:31:00,49.6,46.5,29.35,SE,135,1.1,1.1,89,0.02,RA,SCT,0.63,WeatherDisplay:10.37,2013-02-10 11:31:00,
2013-02-10 06:32:00,49.6,46.5,29.35,SE,135,1.1,1.1,89,0.02,,SCT,0.63,WeatherDisplay:10.37,2013-02-10 11:32:00,
2013-02-10 06:34:00,49.6,46.5,29.35,South,180,10.4,10.4,89,0.02,CLR,SCT,0.63,WeatherDisplay:10.37,2013-02-10 11:34:00,
2013-02-10 06:36:00,49.6,46.5,29.35,SE,135,1.1,1.1,89,0.02,CLR,SCT,0.63,WeatherDisplay:10.37,2013-02-10 11:36:00,
2013-02-10 06:37:00,49.6,46.5,29.34,SSE,158,2.3,2.3,89,0.02,CLR,SCT,0.63,WeatherDisplay:10.37,2013-02-10 11:37:00,
2013-02-10 06:39:00,49.6,46.5,29.34,SSE,158,2.3,2.3,89,0.02,CLR,SCT,0.63,WeatherDisplay:10.37,2013-02-10 11:39:00,
2013-02-10 06:42:00,49.6,46.5,29.35,SSE,158,3.5,3.5,89,0.02,CLR,SCT,0.63,WeatherDisplay:10.37,2013-02-10 11:42:00,
2013-02-10 06:43:00,49.6,46.5,29.35,SSE,158,3.5,3.5,89,0.02,CLR,SCT,0.63,WeatherDisplay:10.37,2013-02-10 11:43:00,
2013-02-10 06:44:00,49.6,46.5,29.35,South,180,2.3,2.7,89,0.02,CLR,SCT,0.63,WeatherDisplay:10.37,2013-02-10 11:44:00,
2013-02-10 06:47:00,49.6,46.5,29.35,SSW,202,3.5,3.5,89,0.02,CLR,SCT,0.63,WeatherDisplay:10.37,2013-02-10 11:47:00,
2013-02-10 06:48:00,49.6,46.5,29.35,SSW,202,3.5,3.5,89,0.02,CLR,SCT,0.63,WeatherDisplay:10.37,2013-02-10 11:48:00,
2013-02-10 06:49:00,49.6,46.5,29.35,SSE,158,0.0,0.0,89,0.02,CLR,SCT,0.63,WeatherDisplay:10.37,2013-02-10 11:49:00,
2013-02-10 06:52:00,49.6,46.5,29.36,SSE,158,9.2,9.2,89,0.02,CLR,SCT,0.63,WeatherDisplay:10.37,2013-02-10 11:52:00,
2013-02-10 06:53:00,49.6,46.5,29.36,SSE,158,9.2,9.2,89,0.02,CLR,SCT,0.63,WeatherDisplay:10.37,2013-02-10 11:53:00,
2013-02-10 06:54:00,49.6,46.5,29.34,SSE,158,2.3,2.3,89,0.02,CLR,SCT,0.63,WeatherDisplay:10.37,2013-02-10 11:54:00,
2013-02-10 06:57:00,49.6,46.5,29.36,SE,135,2.5,2.5,89,0.02,CLR,SCT,0.63,WeatherDisplay:10.37,2013-02-10 11:57:00,
2013-02-10 06:58:00,49.6,46.5,29.36,SE,135,2.5,2.5,89,0.02,CLR,SCT,0.63,WeatherDisplay:10.37,2013-02-10 11:58:00,
2013-02-10 07:00:00,49.6,46.5,29.33,SSE,154,0.0,2.0,89,0.00,CLR,SCT,0.63,WeatherDisplay:10.37,2013-02-10 12:00:00,
2013-02-10 07:02:00,49.6,46.5,29.36,SSE,158,3.5,3.6,89,0.02,CLR,SCT,0.63,WeatherDisplay:10.37,2013-02-10 12:02:00,
2013-02-10 07:03:00,49.6,46.5,29.36,SSE,158,3.5,3.6,89,0.02,CLR,SCT,0.63,WeatherDisplay:10.37,2013-02-10 12:03:00,
2013-02-10 07:05:00,49.6,46.5,29.35,SE,135,0.0,0.0,89,0.02,CLR,SCT,0.63,WeatherDisplay:10.37,2013-02-10 12:05:00,
2013-02-10 07:07:00,49.6,46.5,29.35,SSE,158,3.5,3.5,89,0.02,CLR,SCT,0.63,WeatherDisplay:10.37,2013-02-10 12:07:00,
2013-02-10 07:08:00,49.6,46.5,29.35,SSE,158,5.8,5.8,89,0.02,CLR,SCT,0.63,WeatherDisplay:10.37,2013-02-10 12:08:00,
2013-02-10 07:10:00,49.6,46.5,29.34,South,180,8.1,8.1,89,0.02,CLR,SCT,0.63,WeatherDisplay:10.37,2013-02-10 12:10:00,
2013-02-10 07:12:00,49.6,46.5,29.34,South,180,8.1,8.1,89,0.02,CLR,SCT,0.63,WeatherDisplay:10.37,2013-02-10 12:12:00,
2013-02-10 07:13:00,49.6,46.5,29.33,SSE,158,9.2,9.2,89,0.02,CLR,SCT,0.63,WeatherDisplay:10.37,2013-02-10 12:13:00,
2013-02-10 07:15:00,49.6,46.5,29.36,SSE,158,1.1,1.3,89,0.02,CLR,SCT,0.63,WeatherDisplay:10.37,2013-02-10 12:15:00,
2013-02-10 07:17:00,49.6,46.5,29.33,SSE,158,2.3,2.7,89,0.02,CLR,SCT,0.63,WeatherDisplay:10.37,2013-02-10 12:17:00,
2013-02-10 07:18:00,49.6,46.5,29.33,SSE,158,2.3,2.7,89,0.02,CLR,SCT,0.63,WeatherDisplay:10.37,2013-02-10 12:18:00,
2013-02-10 07:20:00,49.6,46.5,29.33,South,180,0.0,0.0,89,0.02,CLR,SCT,0.63,WeatherDisplay:10.37,2013-02-10 12:20:00,
2013-02-10 07:22:00,49.6,46.5,29.33,South,180,1.1,1.1,89,0.00,CLR,SCT,0.63,WeatherDisplay:10.37,2013-02-10 12:22:00,
2013-02-10 07:23:00,49.6,46.5,29.36,South,180,0.0,0.0,89,0.00,CLR,SCT,0.63,WeatherDisplay:10.37,2013-02-10 12:23:00,
2013-02-10 07:25:00,49.6,46.5,29.36,SSW,202,0.0,0.0,89,0.00,CLR,SCT,0.63,WeatherDisplay:10.37,2013-02-10 12:25:00,
2013-02-10 07:27:00,49.6,46.5,29.34,SSE,158,3.5,3.8,89,0.00,CLR,SCT,0.63,WeatherDisplay:10.37,2013-02-10 12:27:00,
2013-02-10 07:28:00,49.6,46.5,29.36,SSE,158,3.5,3.8,89,0.00,CLR,SCT,0.63,WeatherDisplay:10.37,2013-02-10 12:28:00,
2013-02-10 07:30:00,49.6,46.5,29.33,SSE,158,1.1,1.3,89,0.00,CLR,SCT,0.63,WeatherDisplay:10.37,2013-02-10 12:30:00,
2013-02-10 07:32:00,49.6,46.5,29.33,South,180,1.1,1.1,89,0.00,CLR,SCT,0.63,WeatherDisplay:10.37,2013-02-10 12:32:00,
2013-02-10 07:33:00,49.6,46.5,29.33,South,180,1.1,1.1,89,0.00,CLR,SCT,0.63,WeatherDisplay:10.37,2013-02-10 12:33:00,
2013-02-10 07:35:00,49.6,46.5,29.33,SE,135,2.3,2.3,89,0.00,CLR,SCT,0.63,WeatherDisplay:10.37,2013-02-10 12:35:00,
2013-02-10 07:37:00,49.6,46.5,29.33,SSE,158,0.0,0.0,89,0.00,CLR,SCT,0.63,WeatherDisplay:10.37,2013-02-10 12:37:00,
2013-02-10 07:38:00,49.6,46.5,29.33,SSE,158,3.5,3.5,89,0.00,CLR,SCT,0.63,WeatherDisplay:10.37,2013-02-10 12:38:00,
2013-02-10 07:40:00,49.6,46.5,29.32,South,180,4.6,4.9,89,0.00,CLR,SCT,0.63,WeatherDisplay:10.37,2013-02-10 12:40:00,
2013-02-10 07:42:00,49.6,46.5,29.32,South,180,3.5,3.8,89,0.00,CLR,SCT,0.63,WeatherDisplay:10.37,2013-02-10 12:42:00,
2013-02-10 07:43:00,49.6,46.5,29.32,South,180,3.5,3.8,89,0.00,CLR,SCT,0.63,WeatherDisplay:10.37,2013-02-10 12:43:00,
2013-02-10 07:45:00,49.8,46.7,29.32,South,180,0.0,0.4,89,0.00,CLR,SCT,0.63,WeatherDisplay:10.37,2013-02-10 12:45:00,
2013-02-10 07:47:00,49.8,46.7,29.32,SSE,158,0.0,0.0,89,0.00,CLR,SCT,0.63,WeatherDisplay:10.37,2013-02-10 12:47:00,
2013-02-10 07:48:00,49.8,46.7,29.32,SSE,158,0.0,0.0,89,0.00,CLR,SCT,0.63,WeatherDisplay:10.37,2013-02-10 12:48:00,
2013-02-10 07:50:00,49.8,46.7,29.32,SSW,202,0.0,0.2,89,0.00,CLR,SCT,0.63,WeatherDisplay:10.37,2013-02-10 12:50:00,
2013-02-10 07:52:00,49.8,46.7,29.32,SSE,158,0.0,0.0,89,0.00,CLR,SCT,0.63,WeatherDisplay:10.37,2013-02-10 12:52:00,
2013-02-10 07:53:00,49.8,46.7,29.34,SSE,158,0.0,0.0,89,0.00,CLR,SCT,0.63,WeatherDisplay:10.37,2013-02-10 12:53:00,
2013-02-10 07:55:00,49.8,46.7,29.34,South,180,0.0,0.0,89,0.00,CLR,SCT,0.63,WeatherDisplay:10.37,2013-02-10 12:55:00,
2013-02-10 07:57:00,49.8,46.7,29.32,South,180,0.0,0.0,89,0.00,CLR,SCT,0.63,WeatherDisplay:10.37,2013-02-10 12:57:00,
2013-02-10 07:58:00,50.0,46.9,29.32,South,180,1.1,1.1,89,0.00,CLR,SCT,0.63,WeatherDisplay:10.37,2013-02-10 12:58:00,
2013-02-10 08:00:00,50.2,47.1,29.32,South,180,1.1,1.1,89,0.00,CLR,SCT,0.63,WeatherDisplay:10.37,2013-02-10 13:00:00,
2013-02-10 08:02:00,50.2,47.1,29.33,SSE,158,0.0,0.0,89,0.00,CLR,SCT,0.63,WeatherDisplay:10.37,2013-02-10 13:02:00,
2013-02-10 08:03:00,50.2,47.1,29.33,SSE,158,0.0,0.0,89,0.00,CLR,SCT,0.63,WeatherDisplay:10.37,2013-02-10 13:03:00,
2013-02-10 08:05:00,50.4,47.2,29.33,SSE,158,0.0,0.0,89,0.00,CLR,SCT,0.63,WeatherDisplay:10.37,2013-02-10 13:05:00,
2013-02-10 08:07:00,50.5,47.4,29.33,SW,225,0.0,0.0,89,0.00,CLR,SCT,0.63,WeatherDisplay:10.37,2013-02-10 13:07:00,
2013-02-10 08:08:00,50.5,47.4,29.33,SW,225,0.0,0.0,89,0.00,CLR,SCT,0.63,WeatherDisplay:10.37,2013-02-10 13:08:00,
2013-02-10 08:10:00,50.7,47.6,29.33,SSE,158,0.0,0.0,89,0.00,CLR,SCT,0.63,WeatherDisplay:10.37,2013-02-10 13:10:00,
2013-02-10 08:12:00,50.7,47.6,29.36,SSE,158,0.0,0.0,89,0.00,CLR,SCT,0.63,WeatherDisplay:10.37,2013-02-10 13:12:00,
2013-02-10 08:13:00,50.7,47.6,29.36,SSE,158,0.0,0.0,89,0.00,CLR,SCT,0.63,WeatherDisplay:10.37,2013-02-10 13:13:00,
2013-02-10 08:15:00,50.9,47.8,29.36,WSW,248,0.0,0.0,89,0.00,CLR,SCT,0.63,WeatherDisplay:10.37,2013-02-10 13:15:00,
2013-02-10 08:17:00,51.1,48.0,29.34,SW,225,2.3,2.7,89,0.00,CLR,SCT,0.63,WeatherDisplay:10.37,2013-02-10 13:17:00,
2013-02-10 08:18:00,51.1,48.0,29.34,SW,225,2.7,2.7,89,0.00,CLR,SCT,0.63,WeatherDisplay:10.37,2013-02-10 13:18:00,
2013-02-10 08:20:00,51.1,48.0,29.36,SW,225,2.3,2.7,89,0.00,CLR,SCT,0.63,WeatherDisplay:10.37,2013-02-10 13:20:00,
2013-02-10 08:22:00,51.4,48.3,29.34,SW,225,0.0,0.0,89,0.00,CLR,SCT,0.63,WeatherDisplay:10.37,2013-02-10 13:22:00,
2013-02-10 08:23:00,51.4,48.3,29.34,South,180,2.3,2.3,89,0.00,CLR,SCT,0.63,WeatherDisplay:10.37,2013-02-10 13:23:00,
2013-02-10 08:26:00,51.4,48.3,29.34,South,180,2.3,2.3,89,0.00,CLR,SCT,0.63,WeatherDisplay:10.37,2013-02-10 13:26:00,
2013-02-10 08:27:00,51.4,48.3,29.35,SW,225,0.0,0.0,89,0.00,CLR,SCT,0.63,WeatherDisplay:10.37,2013-02-10 13:27:00,
2013-02-10 08:28:00,51.4,48.3,29.34,SW,225,2.3,2.7,89,0.00,CLR,SCT,0.63,WeatherDisplay:10.37,2013-02-10 13:28:00,
2013-02-10 08:31:00,51.6,48.5,29.35,West,270,0.0,0.0,89,0.00,CLR,SCT,0.63,WeatherDisplay:10.37,2013-02-10 13:31:00,
2013-02-10 08:32:00,51.6,48.5,29.34,West,270,0.0,0.0,89,0.00,CLR,SCT,0.63,WeatherDisplay:10.37,2013-02-10 13:32:00,
2013-02-10 08:33:00,51.6,48.5,29.34,SSW,202,0.0,0.0,89,0.00,CLR,SCT,0.63,WeatherDisplay:10.37,2013-02-10 13:33:00,
2013-02-10 08:36:00,51.6,48.5,29.34,WSW,248,0.0,0.0,89,0.00,CLR,SCT,0.63,WeatherDisplay:10.37,2013-02-10 13:36:00,
2013-02-10 08:38:00,52.0,48.8,29.34,SSE,158,3.5,3.5,89,0.00,CLR,SCT,0.63,WeatherDisplay:10.37,2013-02-10 13:38:00,
2013-02-10 08:41:00,52.0,48.8,29.34,WSW,248,1.1,1.1,89,0.00,CLR,SCT,0.63,WeatherDisplay:10.37,2013-02-10 13:41:00,
2013-02-10 08:43:00,52.0,48.8,29.34,SSW,202,3.5,3.5,89,0.00,CLR,SCT,0.63,WeatherDisplay:10.37,2013-02-10 13:43:00,
2013-02-10 08:46:00,52.2,49.0,29.34,WSW,248,1.1,1.1,89,0.00,CLR,SCT,0.63,WeatherDisplay:10.37,2013-02-10 13:46:00,
2013-02-10 08:48:00,52.2,49.0,29.34,SSW,202,13.0,13.0,89,0.00,CLR,SCT,0.63,WeatherDisplay:10.37,2013-02-10 13:48:00,
2013-02-10 08:51:00,52.3,49.2,29.34,South,180,2.3,2.3,89,0.00,CLR,SCT,0.63,WeatherDisplay:10.37,2013-02-10 13:51:00,
2013-02-10 08:53:00,52.3,49.2,29.34,WSW,248,3.5,3.5,89,0.00,CLR,SCT,0.63,WeatherDisplay:10.37,2013-02-10 13:53:00,
2013-02-10 08:56:00,52.5,49.4,29.36,SSW,202,9.2,9.2,89,0.00,CLR,SCT,0.63,WeatherDisplay:10.37,2013-02-10 13:56:00,
2013-02-10 08:58:00,52.5,49.4,29.34,WSW,248,0.0,0.0,89,0.00,CLR,SCT,0.63,WeatherDisplay:10.37,2013-02-10 13:58:00,
2013-02-10 09:01:00,52.5,49.4,29.34,South,180,2.3,2.3,89,0.00,CLR,SCT,0.63,WeatherDisplay:10.37,2013-02-10 14:01:00,
2013-02-10 09:03:00,52.5,49.4,29.34,South,180,2.3,2.3,89,0.00,CLR,SCT,0.63,WeatherDisplay:10.37,2013-02-10 14:03:00,
2013-02-10 09:04:00,52.5,49.4,29.34,South,180,2.3,2.3,89,0.00,CLR,SCT,0.63,WeatherDisplay:10.37,2013-02-10 14:04:00,
2013-02-10 09:06:00,52.7,49.5,29.34,NW,315,2.3,2.3,89,0.00,CLR,SCT,0.63,WeatherDisplay:10.37,2013-02-10 14:06:00,
2013-02-10 09:08:00,52.5,49.4,29.34,West,270,0.0,0.0,89,0.00,CLR,SCT,0.63,WeatherDisplay:10.37,2013-02-10 14:08:00,
2013-02-10 09:09:00,52.5,49.4,29.34,West,270,0.0,0.0,89,0.00,CLR,SCT,0.63,WeatherDisplay:10.37,2013-02-10 14:09:00,
2013-02-10 09:11:00,52.7,49.5,29.35,WSW,248,1.1,1.1,89,0.00,CLR,SCT,0.63,WeatherDisplay:10.37,2013-02-10 14:11:00,
2013-02-10 09:13:00,52.9,49.7,29.35,WSW,248,1.1,1.1,89,0.00,CLR,SCT,0.63,WeatherDisplay:10.37,2013-02-10 14:13:00,
2013-02-10 09:14:00,52.9,49.7,29.35,WSW,248,1.1,1.1,89,0.00,CLR,SCT,0.63,WeatherDisplay:10.37,2013-02-10 14:14:00,
2013-02-10 09:16:00,52.9,49.7,29.35,South,180,3.5,3.6,89,0.00,CLR,SCT,0.63,WeatherDisplay:10.37,2013-02-10 14:16:00,
2013-02-10 09:18:00,52.9,49.7,29.35,SW,225,0.0,0.0,89,0.00,CLR,SCT,0.63,WeatherDisplay:10.37,2013-02-10 14:18:00,
2013-02-10 09:19:00,52.9,49.7,29.35,SW,225,0.0,0.0,89,0.00,CLR,SCT,0.63,WeatherDisplay:10.37,2013-02-10 14:19:00,
2013-02-10 09:21:00,53.1,49.9,29.35,WSW,248,3.5,4.0,89,0.00,CLR,SCT,0.63,WeatherDisplay:10.37,2013-02-10 14:21:00,
2013-02-10 09:23:00,53.2,50.1,29.35,SSW,202,7.2,7.2,89,0.00,CLR,SCT,0.63,WeatherDisplay:10.37,2013-02-10 14:23:00,
2013-02-10 09:24:00,53.2,50.1,29.35,SSW,202,6.9,6.9,89,0.00,CLR,SCT,0.63,WeatherDisplay:10.37,2013-02-10 14:24:00,
2013-02-10 09:26:00,53.2,50.1,29.35,SW,225,1.1,1.1,89,0.00,CLR,SCT,0.63,WeatherDisplay:10.37,2013-02-10 14:26:00,
2013-02-10 09:28:00,53.2,50.1,29.35,WSW,248,0.0,0.0,89,0.00,CLR,SCT,0.63,WeatherDisplay:10.37,2013-02-10 14:28:00,
2013-02-10 09:29:00,53.2,50.1,29.35,WSW,248,0.0,0.0,89,0.00,CLR,SCT,0.63,WeatherDisplay:10.37,2013-02-10 14:29:00,
2013-02-10 09:31:00,53.4,50.3,29.35,SW,225,3.5,3.6,89,0.00,CLR,SCT,0.63,WeatherDisplay:10.37,2013-02-10 14:31:00,
2013-02-10 09:33:00,53.4,50.3,29.36,West,270,0.0,0.0,89,0.00,CLR,SCT,0.63,WeatherDisplay:10.37,2013-02-10 14:33:00,
2013-02-10 09:34:00,53.4,50.3,29.36,SW,225,3.5,3.5,89,0.00,CLR,SCT,0.63,WeatherDisplay:10.37,2013-02-10 14:34:00,
2013-02-10 09:36:00,53.4,50.3,29.35,SW,225,3.5,3.5,89,0.00,CLR,SCT,0.63,WeatherDisplay:10.37,2013-02-10 14:36:00,
2013-02-10 09:38:00,53.4,50.3,29.35,SW,225,0.0,0.0,89,0.00,CLR,SCT,0.63,WeatherDisplay:10.37,2013-02-10 14:38:00,
2013-02-10 09:39:00,53.4,50.3,29.35,SW,225,0.0,0.0,89,0.00,CLR,SCT,0.63,WeatherDisplay:10.37,2013-02-10 14:39:00,
2013-02-10 09:41:00,53.4,50.3,29.36,SW,225,8.1,8.1,89,0.00,CLR,SCT,0.63,WeatherDisplay:10.37,2013-02-10 14:41:00,
2013-02-10 09:43:00,53.4,50.3,29.35,SW,225,1.1,1.3,89,0.00,CLR,SCT,0.63,WeatherDisplay:10.37,2013-02-10 14:43:00,
2013-02-10 09:44:00,53.4,50.3,29.35,SW,225,1.1,1.3,89,0.00,CLR,SCT,0.63,WeatherDisplay:10.37,2013-02-10 14:44:00,
2013-02-10 09:46:00,53.6,50.1,29.36,WSW,248,2.3,2.3,88,0.00,CLR,SCT,0.63,WeatherDisplay:10.37,2013-02-10 14:46:00,
2013-02-10 09:48:00,53.4,50.0,29.36,SW,225,0.0,0.0,88,0.00,CLR,SCT,0.63,WeatherDisplay:10.37,2013-02-10 14:48:00,
2013-02-10 09:49:00,53.4,50.0,29.36,SW,225,0.0,0.0,88,0.00,CLR,SCT,0.63,WeatherDisplay:10.37,2013-02-10 14:49:00,
2013-02-10 09:52:00,53.4,50.0,29.36,SW,225,0.0,0.0,88,0.00,CLR,SCT,0.63,WeatherDisplay:10.37,2013-02-10 14:52:00,
2013-02-10 09:53:00,53.4,50.0,29.36,SW,225,0.0,0.0,88,0.00,CLR,SCT,0.63,WeatherDisplay:10.37,2013-02-10 14:53:00,
2013-02-10 09:54:00,53.4,50.0,29.36,SW,225,0.0,0.0,88,0.00,CLR,SCT,0.63,WeatherDisplay:10.37,2013-02-10 14:54:00,
2013-02-10 09:57:00,53.4,50.0,29.36,ESE,112,5.1,5.1,88,0.00,CLR,SCT,0.63,WeatherDisplay:10.37,2013-02-10 14:57:00,
2013-02-10 09:58:00,53.4,50.0,29.36,ESE,112,4.6,5.1,88,0.00,CLR,SCT,0.63,WeatherDisplay:10.37,2013-02-10 14:58:00,
2013-02-10 09:59:00,53.4,50.0,29.36,ESE,112,4.6,5.1,88,0.00,CLR,SCT,0.63,WeatherDisplay:10.37,2013-02-10 14:59:00,
2013-02-10 10:02:00,53.4,50.0,29.39,WSW,248,6.9,6.9,88,0.00,CLR,SCT,0.63,WeatherDisplay:10.37,2013-02-10 15:02:00,
2013-02-10 10:03:00,53.4,50.0,29.39,WSW,248,1.1,1.3,88,0.00,CLR,SCT,0.63,WeatherDisplay:10.37,2013-02-10 15:03:00,
2013-02-10 10:04:00,53.4,50.0,29.39,WSW,248,1.1,1.3,88,0.00,CLR,SCT,0.63,WeatherDisplay:10.37,2013-02-10 15:04:00,
2013-02-10 10:07:00,53.4,50.0,29.36,WSW,248,18.8,18.8,88,0.00,CLR,SCT,0.63,WeatherDisplay:10.37,2013-02-10 15:07:00,
2013-02-10 10:08:00,53.4,50.0,29.39,SW,225,9.2,9.2,88,0.00,CLR,SCT,0.63,WeatherDisplay:10.37,2013-02-10 15:08:00,
2013-02-10 10:09:00,53.4,50.0,29.39,SW,225,9.2,9.2,88,0.00,CLR,SCT,0.63,WeatherDisplay:10.37,2013-02-10 15:09:00,
2013-02-10 10:12:00,53.4,49.6,29.36,West,270,2.3,2.5,87,0.00,CLR,SCT,0.63,WeatherDisplay:10.37,2013-02-10 15:12:00,
2013-02-10 10:13:00,53.8,49.7,29.36,West,270,1.1,1.3,86,0.00,CLR,SCT,0.63,WeatherDisplay:10.37,2013-02-10 15:13:00,
2013-02-10 10:14:00,53.8,49.7,29.36,West,270,1.1,1.3,86,0.00,CLR,SCT,0.63,WeatherDisplay:10.37,2013-02-10 15:14:00,
2013-02-10 10:17:00,53.6,48.9,29.39,WSW,248,12.7,12.7,84,0.00,CLR,SCT,0.63,WeatherDisplay:10.37,2013-02-10 15:17:00,
2013-02-10 10:18:00,53.8,49.1,29.39,West,270,13.8,13.8,84,0.00,CLR,SCT,0.63,WeatherDisplay:10.37,2013-02-10 15:18:00,
2013-02-10 10:19:00,53.6,48.9,29.39,SW,225,11.5,11.5,84,0.00,CLR,SCT,0.63,WeatherDisplay:10.37,2013-02-10 15:19:00,
2013-02-10 10:22:00,53.6,48.9,29.39,SSW,202,0.0,0.0,84,0.00,CLR,SCT,0.63,WeatherDisplay:10.37,2013-02-10 15:22:00,
2013-02-10 10:24:00,53.8,49.1,29.37,SSE,158,0.0,0.0,84,0.00,CLR,SCT,0.63,WeatherDisplay:10.37,2013-02-10 15:24:00,
2013-02-10 10:27:00,53.8,48.7,29.37,WSW,248,4.6,4.9,83,0.00,CLR,SCT,0.63,WeatherDisplay:10.37,2013-02-10 15:27:00,
2013-02-10 10:29:00,53.8,48.7,29.39,WSW,248,4.6,4.9,83,0.00,CLR,SCT,0.63,WeatherDisplay:10.37,2013-02-10 15:29:00,
2013-02-10 10:32:00,53.4,48.4,29.39,SW,225,1.1,1.1,83,0.00,CLR,SCT,0.63,WeatherDisplay:10.37,2013-02-10 15:32:00,
2013-02-10 10:34:00,53.4,48.4,29.36,SW,225,1.1,1.1,83,0.00,CLR,SCT,0.63,WeatherDisplay:10.37,2013-02-10 15:34:00,
2013-02-10 10:37:00,53.2,47.9,29.36,SW,225,1.1,1.1,82,0.00,CLR,SCT,0.63,WeatherDisplay:10.37,2013-02-10 15:37:00,
2013-02-10 10:39:00,53.2,47.9,29.36,SW,225,1.1,1.1,82,0.00,CLR,SCT,0.63,WeatherDisplay:10.37,2013-02-10 15:39:00,
2013-02-10 10:42:00,53.1,47.4,29.36,SW,225,2.3,2.5,81,0.00,CLR,SCT,0.63,WeatherDisplay:10.37,2013-02-10 15:42:00,
2013-02-10 10:44:00,52.9,47.2,29.36,NNE,22,2.3,2.3,81,0.00,CLR,SCT,0.63,WeatherDisplay:10.37,2013-02-10 15:44:00,
2013-02-10 10:47:00,52.9,47.2,29.39,WSW,248,0.0,0.2,81,0.00,CLR,SCT,0.63,WeatherDisplay:10.37,2013-02-10 15:47:00,
2013-02-10 10:49:00,52.9,47.5,29.39,West,270,0.4,0.4,82,0.00,CLR,SCT,0.63,WeatherDisplay:10.37,2013-02-10 15:49:00,
2013-02-10 10:52:00,53.2,47.6,29.39,West,270,11.5,11.5,81,0.00,CLR,SCT,0.63,WeatherDisplay:10.37,2013-02-10 15:52:00,
2013-02-10 10:54:00,53.2,47.2,29.37,WSW,248,11.5,11.5,80,0.00,CLR,SCT,0.63,WeatherDisplay:10.37,2013-02-10 15:54:00,
2013-02-10 10:57:00,53.2,46.9,29.39,SW,225,20.7,20.7,79,0.00,CLR,SCT,0.63,WeatherDisplay:10.37,2013-02-10 15:57:00,
2013-02-10 10:59:00,53.4,47.1,29.37,SW,225,10.4,10.4,79,0.00,CLR,SCT,0.63,WeatherDisplay:10.37,2013-02-10 15:59:00,
2013-02-10 11:02:00,54.1,47.4,29.37,West,270,12.7,12.7,78,0.00,CLR,SCT,0.63,WeatherDisplay:10.37,2013-02-10 16:02:00,
2013-02-10 11:04:00,54.7,48.0,29.37,South,180,1.1,1.1,78,0.00,CLR,SCT,0.63,WeatherDisplay:10.37,2013-02-10 16:04:00,
2013-02-10 11:07:00,55.2,48.1,29.37,SSW,202,4.6,4.9,77,0.00,CLR,SCT,0.63,WeatherDisplay:10.37,2013-02-10 16:07:00,
2013-02-10 11:09:00,56.1,48.7,29.37,WSW,248,5.8,5.8,76,0.00,CLR,SCT,0.63,WeatherDisplay:10.37,2013-02-10 16:09:00,
2013-02-10 11:12:00,57.7,49.9,29.37,SW,225,2.3,2.3,75,0.00,CLR,SCT,0.63,WeatherDisplay:10.37,2013-02-10 16:12:00,
2013-02-10 11:14:00,57.7,49.9,29.37,SW,225,2.3,2.3,75,0.00,CLR,SCT,0.63,WeatherDisplay:10.37,2013-02-10 16:14:00,
2013-02-10 11:17:00,58.5,49.1,29.37,WSW,248,10.4,10.4,71,0.00,CLR,SCT,0.63,WeatherDisplay:10.37,2013-02-10 16:17:00,
2013-02-10 11:19:00,57.9,47.8,29.37,WNW,292,12.7,12.7,69,0.00,CLR,SCT,0.63,WeatherDisplay:10.37,2013-02-10 16:19:00,
2013-02-10 11:20:00,57.9,47.8,29.37,WNW,292,12.7,12.7,69,0.00,CLR,SCT,0.63,WeatherDisplay:10.37,2013-02-10 16:20:00,
2013-02-10 11:22:00,57.4,47.7,29.37,SW,225,6.9,6.9,70,0.00,CLR,SCT,0.63,WeatherDisplay:10.37,2013-02-10 16:22:00,
2013-02-10 11:24:00,57.4,47.7,29.37,WSW,248,12.7,12.7,70,0.00,CLR,SCT,0.63,WeatherDisplay:10.37,2013-02-10 16:24:00,
2013-02-10 11:25:00,57.4,48.1,29.37,SW,225,12.7,12.7,71,0.00,CLR,SCT,0.63,WeatherDisplay:10.37,2013-02-10 16:25:00,
2013-02-10 11:28:00,57.4,46.9,29.38,SSE,158,12.7,12.7,68,0.00,CLR,SCT,0.63,WeatherDisplay:10.37,2013-02-10 16:28:00,
2013-02-10 11:29:00,57.6,47.1,29.38,West,270,11.5,11.5,68,0.00,CLR,SCT,0.63,WeatherDisplay:10.37,2013-02-10 16:29:00,
2013-02-10 11:30:00,57.9,47.4,29.38,WSW,239,8.0,13.0,68,0.00,CLR,SCT,0.63,WeatherDisplay:10.37,2013-02-10 16:30:00,
2013-02-10 11:33:00,59.0,48.1,29.38,WSW,248,9.2,9.2,67,0.00,CLR,SCT,0.63,WeatherDisplay:10.37,2013-02-10 16:33:00,
2013-02-10 11:34:00,59.4,47.2,29.38,SSW,202,24.2,24.2,64,0.00,CLR,SCT,0.63,WeatherDisplay:10.37,2013-02-10 16:34:00,
2013-02-10 11:35:00,59.4,46.3,29.37,WSW,256,14.0,26.0,62,0.00,CLR,SCT,0.63,WeatherDisplay:10.37,2013-02-10 16:35:00,
2013-02-10 11:38:00,59.0,45.6,29.38,WSW,248,21.9,21.9,61,0.00,CLR,SCT,0.63,WeatherDisplay:10.37,2013-02-10 16:38:00,
2013-02-10 11:39:00,58.8,45.8,29.38,WSW,248,13.8,13.8,62,0.00,CLR,SCT,0.63,WeatherDisplay:10.37,2013-02-10 16:39:00,
2013-02-10 11:40:00,58.6,45.7,29.38,WSW,248,13.9,13.9,62,0.00,CLR,SCT,0.63,WeatherDisplay:10.37,2013-02-10 16:40:00,
2013-02-10 11:43:00,57.9,45.8,29.37,West,270,2.5,2.5,64,0.00,CLR,SCT,0.63,WeatherDisplay:10.37,2013-02-10 16:43:00,
2013-02-10 11:44:00,57.9,45.8,29.37,West,270,2.3,2.5,64,0.00,CLR,SCT,0.63,WeatherDisplay:10.37,2013-02-10 16:44:00,
2013-02-10 11:45:00,58.3,45.7,29.37,WNW,292,19.6,19.6,63,0.00,CLR,SCT,0.63,WeatherDisplay:10.37,2013-02-10 16:45:00,
2013-02-10 11:48:00,58.8,45.4,29.37,West,270,8.1,8.1,61,0.00,CLR,SCT,0.63,WeatherDisplay:10.37,2013-02-10 16:48:00,
2013-02-10 11:49:00,59.0,46.4,29.37,ESE,112,0.0,0.2,63,0.00,CLR,SCT,0.63,WeatherDisplay:10.37,2013-02-10 16:49:00,
2013-02-10 11:50:00,59.0,46.4,29.37,ESE,112,0.0,0.2,63,0.00,CLR,SCT,0.63,WeatherDisplay:10.37,2013-02-10 16:50:00,
2013-02-10 11:53:00,59.7,45.4,29.37,WNW,292,8.1,8.1,59,0.00,CLR,SCT,0.63,WeatherDisplay:10.37,2013-02-10 16:53:00,
2013-02-10 11:54:00,59.9,46.0,29.37,NW,315,9.2,9.2,60,0.00,CLR,SCT,0.63,WeatherDisplay:10.37,2013-02-10 16:54:00,
2013-02-10 11:55:00,60.1,45.7,29.37,West,270,19.6,19.6,59,0.00,CLR,SCT,0.63,WeatherDisplay:10.37,2013-02-10 16:55:00,
2013-02-10 11:58:00,60.3,45.4,29.37,WSW,248,11.5,11.5,58,0.00,CLR,SCT,0.63,WeatherDisplay:10.37,2013-02-10 16:58:00,
2013-02-10 11:59:00,60.4,45.1,29.37,WSW,248,9.2,9.2,57,0.00,CLR,SCT,0.63,WeatherDisplay:10.37,2013-02-10 16:59:00,
2013-02-10 12:00:00,60.4,44.7,29.37,WNW,292,13.8,13.8,56,0.00,CLR,SCT,0.63,WeatherDisplay:10.37,2013-02-10 17:00:00,
2013-02-10 12:03:00,60.1,43.9,29.37,SW,225,21.9,21.9,55,0.00,CLR,SCT,0.63,WeatherDisplay:10.37,2013-02-10 17:03:00,
2013-02-10 12:04:00,59.9,44.6,29.37,West,270,9.2,9.2,57,0.00,CLR,SCT,0.63,WeatherDisplay:10.37,2013-02-10 17:04:00,
2013-02-10 12:05:00,59.9,45.1,29.37,West,270,9.2,9.2,58,0.00,CLR,SCT,0.63,WeatherDisplay:10.37,2013-02-10 17:05:00,
2013-02-10 12:08:00,59.7,43.0,29.37,WSW,248,17.3,17.3,54,0.00,CLR,SCT,0.63,WeatherDisplay:10.37,2013-02-10 17:08:00,
2013-02-10 12:09:00,59.7,44.5,29.37,SW,225,12.7,12.7,57,0.00,CLR,SCT,0.63,WeatherDisplay:10.37,2013-02-10 17:09:00,
2013-02-10 12:10:00,59.5,42.9,29.37,SSW,202,16.1,16.1,54,0.00,CLR,SCT,0.63,WeatherDisplay:10.37,2013-02-10 17:10:00,
2013-02-10 12:13:00,59.5,43.8,29.37,SSE,158,11.5,11.5,56,0.00,CLR,SCT,0.63,WeatherDisplay:10.37,2013-02-10 17:13:00,
2013-02-10 12:14:00,59.4,42.7,29.37,WSW,248,15.0,15.0,54,0.00,CLR,SCT,0.63,WeatherDisplay:10.37,2013-02-10 17:14:00,
2013-02-10 12:15:00,59.5,43.8,29.37,SW,225,13.8,13.8,56,0.00,CLR,SCT,0.63,WeatherDisplay:10.37,2013-02-10 17:15:00,
2013-02-10 12:18:00,59.5,42.9,29.37,WSW,248,15.0,15.0,54,0.00,CLR,SCT,0.63,WeatherDisplay:10.37,2013-02-10 17:18:00,
2013-02-10 12:19:00,59.7,44.0,29.37,West,270,10.7,10.7,56,0.00,CLR,SCT,0.63,WeatherDisplay:10.37,2013-02-10 17:19:00,
2013-02-10 12:20:00,59.7,44.0,29.37,West,270,10.4,10.4,56,0.00,CLR,SCT,0.63,WeatherDisplay:10.37,2013-02-10 17:20:00,
2013-02-10 12:23:00,60.1,44.3,29.39,WSW,248,8.1,8.1,56,0.00,CLR,SCT,0.63,WeatherDisplay:10.37,2013-02-10 17:23:00,
2013-02-10 12:24:00,60.4,43.2,29.39,West,270,2.3,2.3,53,0.00,CLR,SCT,0.63,WeatherDisplay:10.37,2013-02-10 17:24:00,
2013-02-10 12:25:00,60.4,43.2,29.39,West,270,2.3,2.3,53,0.00,CLR,SCT,0.63,WeatherDisplay:10.37,2013-02-10 17:25:00,
2013-02-10 12:28:00,60.4,44.2,29.39,West,270,15.0,15.0,55,0.00,CLR,SCT,0.63,WeatherDisplay:10.37,2013-02-10 17:28:00,
2013-02-10 12:29:00,60.4,41.7,29.39,WNW,292,16.1,16.1,50,0.00,CLR,SCT,0.63,WeatherDisplay:10.37,2013-02-10 17:29:00,
2013-02-10 12:30:00,60.4,41.7,29.39,WNW,292,16.1,16.1,50,0.00,CLR,SCT,0.63,WeatherDisplay:10.37,2013-02-10 17:30:00,
2013-02-10 12:33:00,61.0,43.2,29.37,SW,225,16.1,16.1,52,0.00,CLR,SCT,0.63,WeatherDisplay:10.37,2013-02-10 17:33:00,
2013-02-10 12:34:00,61.0,42.7,29.37,SW,225,16.1,16.1,51,0.00,CLR,SCT,0.63,WeatherDisplay:10.37,2013-02-10 17:34:00,
2013-02-10 12:35:00,61.0,42.7,29.37,SW,225,16.1,16.1,51,0.00,CLR,SCT,0.63,WeatherDisplay:10.37,2013-02-10 17:35:00,
2013-02-10 12:38:00,60.8,43.1,29.37,NW,315,4.6,4.6,52,0.00,CLR,SCT,0.63,WeatherDisplay:10.37,2013-02-10 17:38:00,
2013-02-10 12:39:00,61.2,40.8,29.37,WNW,292,5.8,5.8,47,0.00,CLR,SCT,0.63,WeatherDisplay:10.37,2013-02-10 17:39:00,
2013-02-10 12:40:00,61.2,40.8,29.37,WNW,292,5.8,5.8,47,0.00,CLR,SCT,0.63,WeatherDisplay:10.37,2013-02-10 17:40:00,
2013-02-10 12:43:00,61.0,41.7,29.37,WNW,292,3.5,3.5,49,0.00,CLR,SCT,0.63,WeatherDisplay:10.37,2013-02-10 17:43:00,
2013-02-10 12:44:00,61.3,42.0,29.37,West,270,10.4,10.4,49,0.00,CLR,SCT,0.63,WeatherDisplay:10.37,2013-02-10 17:44:00,
2013-02-10 12:45:00,61.3,42.0,29.37,West,270,10.4,10.4,49,0.00,CLR,SCT,0.63,WeatherDisplay:10.37,2013-02-10 17:45:00,
2013-02-10 12:48:00,61.5,41.6,29.37,NW,315,3.5,3.5,48,0.00,CLR,SCT,0.63,WeatherDisplay:10.37,2013-02-10 17:48:00,
2013-02-10 12:49:00,61.5,41.1,29.37,WNW,292,0.0,0.0,47,0.00,CLR,SCT,0.63,WeatherDisplay:10.37,2013-02-10 17:49:00,
2013-02-10 12:50:00,61.5,41.1,29.37,WNW,292,0.0,0.0,47,0.00,CLR,SCT,0.63,WeatherDisplay:10.37,2013-02-10 17:50:00,
2013-02-10 12:53:00,61.5,41.6,29.39,WSW,248,1.1,1.6,48,0.00,CLR,SCT,0.63,WeatherDisplay:10.37,2013-02-10 17:53:00,
2013-02-10 12:54:00,61.5,41.6,29.39,WSW,248,1.1,1.6,48,0.00,CLR,SCT,0.63,WeatherDisplay:10.37,2013-02-10 17:54:00,
2013-02-10 12:55:00,61.5,41.6,29.39,WSW,248,1.1,1.6,48,0.00,CLR,SCT,0.63,WeatherDisplay:10.37,2013-02-10 17:55:00,
2013-02-10 12:58:00,61.9,40.3,29.39,WNW,292,19.6,19.6,45,0.00,CLR,SCT,0.63,WeatherDisplay:10.37,2013-02-10 17:58:00,
2013-02-10 12:59:00,61.5,41.1,29.39,WNW,292,10.4,10.4,47,0.00,CLR,SCT,0.63,WeatherDisplay:10.37,2013-02-10 17:59:00,
2013-02-10 13:00:00,61.5,41.1,29.39,WNW,292,10.4,10.4,47,0.00,CLR,SCT,0.63,WeatherDisplay:10.37,2013-02-10 18:00:00,
2013-02-10 13:03:00,61.2,40.8,29.39,WNW,292,8.1,8.1,47,0.00,CLR,SCT,0.63,WeatherDisplay:10.37,2013-02-10 18:03:00,
2013-02-10 13:04:00,61.3,40.4,29.39,West,270,8.1,8.1,46,0.00,CLR,SCT,0.63,WeatherDisplay:10.37,2013-02-10 18:04:00,
2013-02-10 13:05:00,61.3,40.9,29.39,West,270,8.1,8.1,47,0.00,CLR,SCT,0.63,WeatherDisplay:10.37,2013-02-10 18:05:00,
2013-02-10 13:08:00,61.2,41.3,29.39,WSW,248,13.8,13.8,48,0.00,CLR,SCT,0.63,WeatherDisplay:10.37,2013-02-10 18:08:00,
2013-02-10 13:09:00,60.8,41.0,29.36,WSW,248,12.7,12.7,48,0.00,CLR,SCT,0.63,WeatherDisplay:10.37,2013-02-10 18:09:00,
2013-02-10 13:10:00,60.8,41.0,29.36,WSW,248,12.7,12.7,48,0.00,CLR,SCT,0.63,WeatherDisplay:10.37,2013-02-10 18:10:00,
2013-02-10 13:13:00,60.4,41.2,29.39,WSW,248,3.5,4.0,49,0.00,CLR,SCT,0.63,WeatherDisplay:10.37,2013-02-10 18:13:00,
2013-02-10 13:15:00,60.4,41.2,29.39,WSW,248,3.5,4.0,49,0.00,CLR,SCT,0.63,WeatherDisplay:10.37,2013-02-10 18:15:00,
2013-02-10 13:19:00,59.5,37.0,29.39,SW,225,23.0,23.0,43,0.00,CLR,SCT,0.63,WeatherDisplay:10.37,2013-02-10 18:19:00,
2013-02-10 13:20:00,59.4,36.8,29.39,West,270,17.3,17.3,43,0.00,CLR,SCT,0.63,WeatherDisplay:10.37,2013-02-10 18:20:00,
2013-02-10 13:24:00,59.0,38.2,29.36,West,270,19.6,19.6,46,0.00,CLR,SCT,0.63,WeatherDisplay:10.37,2013-02-10 18:24:00,
2013-02-10 13:25:00,58.8,36.9,29.36,West,270,15.0,15.0,44,0.00,CLR,SCT,0.63,WeatherDisplay:10.37,2013-02-10 18:25:00,
2013-02-10 13:29:00,58.8,37.5,29.36,WSW,248,12.7,12.7,45,0.00,CLR,SCT,0.63,WeatherDisplay:10.37,2013-02-10 18:29:00,
2013-02-10 13:30:00,58.8,38.6,29.36,WNW,292,10.4,10.4,47,0.00,CLR,SCT,0.63,WeatherDisplay:10.37,2013-02-10 18:30:00,
2013-02-10 13:34:00,58.8,38.6,29.36,NW,315,3.5,3.8,47,0.00,CLR,SCT,0.63,WeatherDisplay:10.37,2013-02-10 18:34:00,
2013-02-10 13:35:00,58.8,36.9,29.36,West,270,4.6,4.7,44,0.00,CLR,SCT,0.63,WeatherDisplay:10.37,2013-02-10 18:35:00,
2013-02-10 13:39:00,58.6,38.5,29.36,WNW,292,15.0,15.0,47,0.00,CLR,SCT,0.63,WeatherDisplay:10.37,2013-02-10 18:39:00,
2013-02-10 13:40:00,58.6,38.5,29.36,WSW,248,8.1,8.1,47,0.00,CLR,SCT,0.63,WeatherDisplay:10.37,2013-02-10 18:40:00,
2013-02-10 13:44:00,58.6,39.0,29.36,WSW,248,2.3,2.7,48,0.00,CLR,SCT,0.63,WeatherDisplay:10.37,2013-02-10 18:44:00,
2013-02-10 13:45:00,58.6,39.0,29.36,WSW,248,2.3,2.7,48,0.00,CLR,SCT,0.63,WeatherDisplay:10.37,2013-02-10 18:45:00,
2013-02-10 13:49:00,59.0,37.7,29.36,WNW,292,16.1,16.1,45,0.00,CLR,SCT,0.63,WeatherDisplay:10.37,2013-02-10 18:49:00,
2013-02-10 13:50:00,59.0,37.1,29.36,West,270,15.0,15.0,44,0.00,CLR,SCT,0.63,WeatherDisplay:10.37,2013-02-10 18:50:00,
2013-02-10 13:54:00,59.0,37.7,29.36,SW,225,13.8,13.8,45,0.00,CLR,SCT,0.63,WeatherDisplay:10.37,2013-02-10 18:54:00,
2013-02-10 13:55:00,59.0,35.9,29.36,West,270,32.2,32.2,42,0.00,CLR,SCT,0.63,WeatherDisplay:10.37,2013-02-10 18:55:00,
2013-02-10 13:56:00,59.0,37.1,29.36,West,270,32.2,32.2,44,0.00,CLR,SCT,0.63,WeatherDisplay:10.37,2013-02-10 18:56:00,
2013-02-10 13:59:00,58.8,35.8,29.36,West,270,17.3,17.3,42,0.00,CLR,SCT,0.63,WeatherDisplay:10.37,2013-02-10 18:59:00,
2013-02-10 14:00:00,58.8,36.9,29.36,West,270,11.5,11.5,44,0.00,CLR,SCT,0.63,WeatherDisplay:10.37,2013-02-10 19:00:00,
2013-02-10 14:01:00,58.8,36.9,29.36,West,270,11.5,11.5,44,0.00,CLR,SCT,0.63,WeatherDisplay:10.37,2013-02-10 19:01:00,
2013-02-10 14:04:00,59.0,36.5,29.36,West,270,16.1,16.1,43,0.00,CLR,SCT,0.63,WeatherDisplay:10.37,2013-02-10 19:04:00,
2013-02-10 14:05:00,59.0,37.7,29.36,SW,225,11.5,11.5,45,0.00,CLR,SCT,0.63,WeatherDisplay:10.37,2013-02-10 19:05:00,
2013-02-10 14:06:00,59.0,37.7,29.36,West,270,16.1,16.1,45,0.00,CLR,SCT,0.63,WeatherDisplay:10.37,2013-02-10 19:06:00,
2013-02-10 14:09:00,59.0,37.1,29.36,West,270,17.3,17.3,44,0.00,CLR,SCT,0.63,WeatherDisplay:10.37,2013-02-10 19:09:00,
2013-02-10 14:10:00,59.0,37.7,29.36,WSW,248,11.5,11.5,45,0.00,CLR,SCT,0.63,WeatherDisplay:10.37,2013-02-10 19:10:00,
2013-02-10 14:11:00,59.0,37.7,29.36,WSW,248,11.5,11.5,45,0.00,CLR,SCT,0.63,WeatherDisplay:10.37,2013-02-10 19:11:00,
2013-02-10 14:14:00,59.4,36.2,29.36,West,270,24.2,24.2,42,0.00,CLR,SCT,0.63,WeatherDisplay:10.37,2013-02-10 19:14:00,
2013-02-10 14:15:00,59.4,36.8,29.35,West,270,12.7,12.7,43,0.00,CLR,SCT,0.63,WeatherDisplay:10.37,2013-02-10 19:15:00,
2013-02-10 14:16:00,59.4,36.8,29.35,WSW,248,10.4,10.4,43,0.00,CLR,SCT,0.63,WeatherDisplay:10.37,2013-02-10 19:16:00,
2013-02-10 14:19:00,59.7,37.2,29.36,NW,315,8.1,8.1,43,0.00,CLR,SCT,0.63,WeatherDisplay:10.37,2013-02-10 19:19:00,
2013-02-10 14:20:00,59.5,38.2,29.35,WNW,292,10.4,10.4,45,0.00,CLR,SCT,0.63,WeatherDisplay:10.37,2013-02-10 19:20:00,
2013-02-10 14:21:00,59.7,37.2,29.35,SW,225,13.8,13.8,43,0.00,CLR,SCT,0.63,WeatherDisplay:10.37,2013-02-10 19:21:00,
2013-02-10 14:24:00,59.7,37.8,29.36,West,270,12.7,12.7,44,0.00,CLR,SCT,0.63,WeatherDisplay:10.37,2013-02-10 19:24:00,
2013-02-10 14:25:00,59.7,37.8,29.35,NW,315,8.1,8.1,44,0.00,CLR,SCT,0.63,WeatherDisplay:10.37,2013-02-10 19:25:00,
2013-02-10 14:26:00,59.7,37.8,29.35,NW,315,9.2,9.2,44,0.00,CLR,SCT,0.63,WeatherDisplay:10.37,2013-02-10 19:26:00,
2013-02-10 14:29:00,59.5,35.8,29.35,West,270,8.1,8.1,41,0.00,CLR,SCT,0.63,WeatherDisplay:10.37,2013-02-10 19:29:00,
2013-02-10 14:30:00,59.5,35.8,29.35,NW,315,15.0,15.0,41,0.00,CLR,SCT,0.63,WeatherDisplay:10.37,2013-02-10 19:30:00,
2013-02-10 14:31:00,59.5,37.0,29.35,WSW,248,16.1,16.1,43,0.00,CLR,SCT,0.63,WeatherDisplay:10.37,2013-02-10 19:31:00,
2013-02-10 14:34:00,59.4,35.6,29.36,WNW,292,19.6,19.6,41,0.00,CLR,SCT,0.63,WeatherDisplay:10.37,2013-02-10 19:34:00,
2013-02-10 14:35:00,59.2,36.1,29.36,West,270,15.0,15.0,42,0.00,CLR,SCT,0.63,WeatherDisplay:10.37,2013-02-10 19:35:00,
2013-02-10 14:36:00,59.2,36.1,29.36,West,270,15.0,15.0,42,0.00,CLR,SCT,0.63,WeatherDisplay:10.37,2013-02-10 19:36:00,
2013-02-10 14:39:00,59.5,35.2,29.36,NW,315,21.9,21.9,40,0.00,CLR,SCT,0.63,WeatherDisplay:10.37,2013-02-10 19:39:00,
2013-02-10 14:40:00,59.5,37.0,29.36,NW,315,16.1,16.1,43,0.00,CLR,SCT,0.63,WeatherDisplay:10.37,2013-02-10 19:40:00,
2013-02-10 14:41:00,59.7,36.0,29.36,WNW,292,11.5,11.5,41,0.00,CLR,SCT,0.63,WeatherDisplay:10.37,2013-02-10 19:41:00,
2013-02-10 14:45:00,59.5,36.4,29.36,SW,225,10.4,10.4,42,0.00,CLR,SCT,0.63,WeatherDisplay:10.37,2013-02-10 19:45:00,
2013-02-10 14:46:00,59.4,36.2,29.36,West,270,1.1,1.6,42,0.00,CLR,SCT,0.63,WeatherDisplay:10.37,2013-02-10 19:46:00,
2013-02-10 14:50:00,59.9,36.1,29.36,WNW,292,19.6,19.6,41,0.00,CLR,SCT,0.63,WeatherDisplay:10.37,2013-02-10 19:50:00,
2013-02-10 14:51:00,59.7,36.0,29.36,WSW,248,12.7,12.7,41,0.00,CLR,SCT,0.63,WeatherDisplay:10.37,2013-02-10 19:51:00,
2013-02-10 14:55:00,59.9,36.7,29.36,WSW,248,15.0,15.0,42,0.00,CLR,SCT,0.63,WeatherDisplay:10.37,2013-02-10 19:55:00,
2013-02-10 14:56:00,59.9,36.7,29.36,WSW,248,15.0,15.0,42,0.00,CLR,SCT,0.63,WeatherDisplay:10.37,2013-02-10 19:56:00,
2013-02-10 15:00:00,60.1,34.4,29.39,NW,315,20.7,20.7,38,0.00,CLR,SCT,0.63,WeatherDisplay:10.37,2013-02-10 20:00:00,
2013-02-10 15:01:00,60.1,34.4,29.39,NW,315,20.7,20.7,38,0.00,CLR,SCT,0.63,WeatherDisplay:10.37,2013-02-10 20:01:00,
2013-02-10 15:05:00,59.7,35.3,29.36,West,270,13.8,13.8,40,0.00,CLR,SCT,0.63,WeatherDisplay:10.37,2013-02-10 20:05:00,
2013-02-10 15:06:00,59.7,35.3,29.36,West,270,13.8,13.8,40,0.00,CLR,SCT,0.63,WeatherDisplay:10.37,2013-02-10 20:06:00,
2013-02-10 15:10:00,59.5,36.4,29.39,WNW,292,10.4,10.4,42,0.00,CLR,SCT,0.63,WeatherDisplay:10.37,2013-02-10 20:10:00,
2013-02-10 15:11:00,59.5,36.4,29.39,WNW,292,10.4,10.4,42,0.00,CLR,SCT,0.63,WeatherDisplay:10.37,2013-02-10 20:11:00,
2013-02-10 15:15:00,59.5,35.2,29.39,WSW,248,20.7,20.7,40,0.00,CLR,SCT,0.63,WeatherDisplay:10.37,2013-02-10 20:15:00,
2013-02-10 15:16:00,59.5,35.2,29.39,WSW,248,20.7,20.7,40,0.00,CLR,SCT,0.63,WeatherDisplay:10.37,2013-02-10 20:16:00,
2013-02-10 15:20:00,59.4,35.0,29.37,WSW,248,15.0,15.0,40,0.00,CLR,SCT,0.63,WeatherDisplay:10.37,2013-02-10 20:20:00,
2013-02-10 15:21:00,59.5,35.8,29.37,WSW,248,10.4,10.4,41,0.00,CLR,SCT,0.63,WeatherDisplay:10.37,2013-02-10 20:21:00,
2013-02-10 15:25:00,59.7,35.3,29.37,WNW,292,9.2,9.2,40,0.00,CLR,SCT,0.63,WeatherDisplay:10.37,2013-02-10 20:25:00,
2013-02-10 15:26:00,59.7,36.0,29.37,West,270,9.2,9.2,41,0.00,CLR,SCT,0.63,WeatherDisplay:10.37,2013-02-10 20:26:00,
2013-02-10 15:30:00,59.7,35.3,29.37,NW,315,8.1,8.1,40,0.00,CLR,SCT,0.63,WeatherDisplay:10.37,2013-02-10 20:30:00,
2013-02-10 15:31:00,59.9,34.9,29.37,WSW,248,20.7,20.7,39,0.00,CLR,SCT,0.63,WeatherDisplay:10.37,2013-02-10 20:31:00,
2013-02-10 15:35:00,59.5,35.2,29.37,WSW,248,3.5,3.5,40,0.00,CLR,SCT,0.63,WeatherDisplay:10.37,2013-02-10 20:35:00,
2013-02-10 15:36:00,59.5,35.2,29.37,WSW,248,3.5,3.5,40,0.00,CLR,SCT,0.63,WeatherDisplay:10.37,2013-02-10 20:36:00,
2013-02-10 15:40:00,59.7,34.0,29.37,North,0,16.1,16.1,38,0.00,CLR,SCT,0.63,WeatherDisplay:10.37,2013-02-10 20:40:00,
2013-02-10 15:41:00,59.9,35.5,29.37,WNW,292,16.1,16.1,40,0.00,CLR,SCT,0.63,WeatherDisplay:10.37,2013-02-10 20:41:00,
2013-02-10 15:42:00,59.9,35.5,29.37,WNW,292,16.1,16.1,40,0.00,CLR,SCT,0.63,WeatherDisplay:10.37,2013-02-10 20:42:00,
2013-02-10 15:45:00,59.9,36.1,29.37,WSW,248,3.5,3.6,41,0.00,CLR,SCT,0.63,WeatherDisplay:10.37,2013-02-10 20:45:00,
2013-02-10 15:46:00,59.9,36.1,29.37,WSW,248,3.5,3.6,41,0.00,CLR,SCT,0.63,WeatherDisplay:10.37,2013-02-10 20:46:00,
2013-02-10 15:47:00,59.9,36.1,29.37,WSW,248,3.5,3.6,41,0.00,CLR,SCT,0.63,WeatherDisplay:10.37,2013-02-10 20:47:00,
2013-02-10 15:50:00,60.4,36.6,29.37,NW,315,0.0,0.0,41,0.00,CLR,SCT,0.63,WeatherDisplay:10.37,2013-02-10 20:50:00,
2013-02-10 15:51:00,60.3,36.4,29.37,West,270,9.2,9.2,41,0.00,CLR,SCT,0.63,WeatherDisplay:10.37,2013-02-10 20:51:00,
2013-02-10 15:52:00,60.3,36.4,29.37,West,270,9.2,9.2,41,0.00,CLR,SCT,0.63,WeatherDisplay:10.37,2013-02-10 20:52:00,
2013-02-10 15:56:00,60.1,35.0,29.37,NW,315,11.5,11.5,39,0.00,CLR,SCT,0.63,WeatherDisplay:10.37,2013-02-10 20:56:00,
2013-02-10 15:57:00,59.7,34.0,29.38,WSW,248,18.4,18.4,38,0.00,CLR,SCT,0.63,WeatherDisplay:10.37,2013-02-10 20:57:00,
2013-02-10 16:01:00,59.0,34.7,29.38,West,270,24.2,24.2,40,0.00,CLR,SCT,0.63,WeatherDisplay:10.37,2013-02-10 21:01:00,
2013-02-10 16:02:00,59.0,35.3,29.38,WNW,292,8.1,8.1,41,0.00,CLR,SCT,0.63,WeatherDisplay:10.37,2013-02-10 21:02:00,
2013-02-10 16:06:00,59.0,35.9,29.38,NNW,338,8.1,8.1,42,0.00,CLR,SCT,0.63,WeatherDisplay:10.37,2013-02-10 21:06:00,
2013-02-10 16:07:00,59.0,34.7,29.38,NW,315,3.5,3.5,40,0.00,CLR,SCT,0.63,WeatherDisplay:10.37,2013-02-10 21:07:00,
2013-02-10 16:11:00,59.2,34.9,29.39,West,270,4.6,4.6,40,0.00,CLR,SCT,0.63,WeatherDisplay:10.37,2013-02-10 21:11:00,
2013-02-10 16:12:00,59.5,35.8,29.39,West,270,0.0,0.0,41,0.00,CLR,SCT,0.63,WeatherDisplay:10.37,2013-02-10 21:12:00,
2013-02-10 16:16:00,60.1,35.7,29.39,NW,315,3.5,3.5,40,0.00,CLR,SCT,0.63,WeatherDisplay:10.37,2013-02-10 21:16:00,
2013-02-10 16:17:00,60.1,36.3,29.39,WSW,248,4.6,4.6,41,0.00,CLR,SCT,0.63,WeatherDisplay:10.37,2013-02-10 21:17:00,
2013-02-10 16:21:00,60.1,35.0,29.39,WSW,248,9.2,9.2,39,0.00,CLR,SCT,0.63,WeatherDisplay:10.37,2013-02-10 21:21:00,
2013-02-10 16:22:00,60.1,35.7,29.39,West,270,2.3,2.5,40,0.00,CLR,SCT,0.63,WeatherDisplay:10.37,2013-02-10 21:22:00,
2013-02-10 16:26:00,60.1,35.7,29.42,SSE,158,2.3,2.3,40,0.00,CLR,SCT,0.63,WeatherDisplay:10.37,2013-02-10 21:26:00,
2013-02-10 16:27:00,59.9,35.5,29.42,SW,225,13.8,13.8,40,0.00,CLR,SCT,0.63,WeatherDisplay:10.37,2013-02-10 21:27:00,
2013-02-10 16:31:00,59.7,34.0,29.40,WNW,292,20.7,20.7,38,0.00,CLR,SCT,0.63,WeatherDisplay:10.37,2013-02-10 21:31:00,
2013-02-10 16:32:00,59.5,35.2,29.40,West,270,17.3,17.3,40,0.00,CLR,SCT,0.63,WeatherDisplay:10.37,2013-02-10 21:32:00,
2013-02-10 16:36:00,59.2,32.9,29.40,WSW,248,19.6,19.6,37,0.00,CLR,SCT,0.63,WeatherDisplay:10.37,2013-02-10 21:36:00,
2013-02-10 16:37:00,59.0,34.1,29.40,WSW,248,15.0,15.0,39,0.00,CLR,SCT,0.63,WeatherDisplay:10.37,2013-02-10 21:37:00,
2013-02-10 16:41:00,58.6,33.7,29.40,West,270,12.7,12.7,39,0.00,CLR,SCT,0.63,WeatherDisplay:10.37,2013-02-10 21:41:00,
2013-02-10 16:42:00,58.6,35.0,29.40,WNW,292,10.4,10.4,41,0.00,CLR,SCT,0.63,WeatherDisplay:10.37,2013-02-10 21:42:00,
2013-02-10 16:46:00,58.8,35.2,29.40,WSW,248,10.4,10.4,41,0.00,CLR,SCT,0.63,WeatherDisplay:10.37,2013-02-10 21:46:00,
2013-02-10 16:47:00,58.6,33.7,29.40,West,270,12.7,12.7,39,0.00,CLR,SCT,0.63,WeatherDisplay:10.37,2013-02-10 21:47:00,
2013-02-10 16:51:00,57.9,33.7,29.40,WSW,248,11.5,11.5,40,0.00,CLR,SCT,0.63,WeatherDisplay:10.37,2013-02-10 21:51:00,
2013-02-10 16:52:00,57.7,33.6,29.40,WSW,248,21.9,21.9,40,0.00,CLR,SCT,0.63,WeatherDisplay:10.37,2013-02-10 21:52:00,
2013-02-10 16:56:00,57.4,32.0,29.41,WNW,292,18.4,18.4,38,0.00,CLR,SCT,0.63,WeatherDisplay:10.37,2013-02-10 21:56:00,
2013-02-10 16:57:00,57.4,32.6,29.40,NW,315,10.4,10.4,39,0.00,CLR,SCT,0.63,WeatherDisplay:10.37,2013-02-10 21:57:00,
2013-02-10 17:01:00,57.4,33.9,29.40,WNW,292,3.5,3.5,41,0.00,CLR,SCT,0.63,WeatherDisplay:10.37,2013-02-10 22:01:00,
2013-02-10 17:02:00,57.4,33.9,29.40,WNW,292,3.5,3.5,41,0.00,CLR,SCT,0.63,WeatherDisplay:10.37,2013-02-10 22:02:00,
2013-02-10 17:06:00,57.4,33.2,29.41,West,270,3.5,4.0,40,0.00,CLR,SCT,0.63,WeatherDisplay:10.37,2013-02-10 22:06:00,
2013-02-10 17:07:00,57.4,33.2,29.41,West,270,3.5,4.0,40,0.00,CLR,SCT,0.63,WeatherDisplay:10.37,2013-02-10 22:07:00,
2013-02-10 17:12:00,57.7,34.2,29.41,WSW,248,12.7,12.7,41,0.00,CLR,SCT,0.63,WeatherDisplay:10.37,2013-02-10 22:12:00,
2013-02-10 17:17:00,57.7,34.2,29.41,WNW,292,11.5,11.5,41,0.00,CLR,SCT,0.63,WeatherDisplay:10.37,2013-02-10 22:17:00,
2013-02-10 17:18:00,57.7,34.2,29.41,SW,225,12.7,12.7,41,0.00,CLR,SCT,0.63,WeatherDisplay:10.37,2013-02-10 22:18:00,
2013-02-10 17:22:00,57.6,32.8,29.41,WNW,292,23.0,23.0,39,0.00,CLR,SCT,0.63,WeatherDisplay:10.37,2013-02-10 22:22:00,
2013-02-10 17:23:00,57.6,32.8,29.41,WSW,248,15.0,15.0,39,0.00,CLR,SCT,0.63,WeatherDisplay:10.37,2013-02-10 22:23:00,
2013-02-10 17:27:00,57.6,34.0,29.41,West,270,11.5,11.5,41,0.00,CLR,SCT,0.63,WeatherDisplay:10.37,2013-02-10 22:27:00,
2013-02-10 17:28:00,57.6,34.0,29.41,West,270,11.5,11.5,41,0.00,CLR,SCT,0.63,WeatherDisplay:10.37,2013-02-10 22:28:00,
2013-02-10 17:32:00,57.7,34.2,29.44,South,180,13.8,13.8,41,0.00,CLR,SCT,0.63,WeatherDisplay:10.37,2013-02-10 22:32:00,
2013-02-10 17:33:00,57.7,34.8,29.44,West,270,3.5,3.5,42,0.00,CLR,SCT,0.63,WeatherDisplay:10.37,2013-02-10 22:33:00,
2013-02-10 17:37:00,57.7,33.6,29.44,West,270,10.4,10.4,40,0.51,RA,SCT,1.14,WeatherDisplay:10.37,2013-02-10 22:37:00,
2013-02-10 17:38:00,57.7,34.8,29.44,WNW,292,3.5,4.0,42,0.51,RA,SCT,1.14,WeatherDisplay:10.37,2013-02-10 22:38:00,
2013-02-10 17:42:00,57.7,34.8,29.42,SW,225,3.5,3.8,42,0.51,RA,SCT,1.14,WeatherDisplay:10.37,2013-02-10 22:42:00,
2013-02-10 17:43:00,57.6,33.4,29.42,West,270,1.1,1.1,40,0.51,RA,SCT,1.14,WeatherDisplay:10.37,2013-02-10 22:43:00,
2013-02-10 17:47:00,57.6,33.4,29.42,NW,315,1.1,1.1,40,0.51,CLR,SCT,1.14,WeatherDisplay:10.37,2013-02-10 22:47:00,
2013-02-10 17:48:00,57.4,33.2,29.42,WSW,248,10.4,10.4,40,0.51,CLR,SCT,1.14,WeatherDisplay:10.37,2013-02-10 22:48:00,
2013-02-10 17:52:00,57.4,33.9,29.42,WSW,248,12.7,12.7,41,0.51,CLR,SCT,1.14,WeatherDisplay:10.37,2013-02-10 22:52:00,
2013-02-10 17:53:00,57.2,33.7,29.42,NW,315,10.4,10.4,41,0.51,CLR,SCT,1.14,WeatherDisplay:10.37,2013-02-10 22:53:00,
2013-02-10 17:57:00,57.0,32.9,29.42,NW,315,10.4,10.4,40,0.51,CLR,SCT,1.14,WeatherDisplay:10.37,2013-02-10 22:57:00,
2013-02-10 17:58:00,57.0,32.3,29.42,West,270,13.8,13.8,39,0.51,CLR,SCT,1.14,WeatherDisplay:10.37,2013-02-10 22:58:00,
2013-02-10 18:02:00,56.8,32.1,29.43,WSW,248,17.3,17.3,39,0.51,CLR,SCT,1.14,WeatherDisplay:10.37,2013-02-10 23:02:00,
2013-02-10 18:03:00,56.8,32.1,29.43,WSW,248,9.2,9.2,39,0.51,CLR,SCT,1.14,WeatherDisplay:10.37,2013-02-10 23:03:00,
2013-02-10 18:07:00,56.8,32.8,29.43,WSW,248,12.7,12.7,40,0.51,CLR,SCT,1.14,WeatherDisplay:10.37,2013-02-10 23:07:00,
2013-02-10 18:08:00,56.7,32.6,29.43,WSW,248,2.3,2.3,40,0.51,CLR,SCT,1.14,WeatherDisplay:10.37,2013-02-10 23:08:00,
2013-02-10 18:12:00,56.5,32.4,29.43,WSW,248,12.7,12.7,40,0.51,CLR,SCT,1.14,WeatherDisplay:10.37,2013-02-10 23:12:00,
2013-02-10 18:13:00,56.5,32.4,29.43,West,270,8.1,8.1,40,0.51,CLR,SCT,1.14,WeatherDisplay:10.37,2013-02-10 23:13:00,
2013-02-10 18:17:00,56.1,32.7,29.44,WNW,292,6.9,6.9,41,0.51,CLR,SCT,1.14,WeatherDisplay:10.37,2013-02-10 23:17:00,
2013-02-10 18:18:00,56.1,32.7,29.44,West,270,9.2,9.2,41,0.51,CLR,SCT,1.14,WeatherDisplay:10.37,2013-02-10 23:18:00,
2013-02-10 18:22:00,55.9,32.6,29.44,WNW,292,3.5,4.0,41,0.51,CLR,SCT,1.14,WeatherDisplay:10.37,2013-02-10 23:22:00,
2013-02-10 18:23:00,55.9,32.6,29.44,WNW,292,3.5,4.0,41,0.51,CLR,SCT,1.14,WeatherDisplay:10.37,2013-02-10 23:23:00,
2013-02-10 18:27:00,55.6,32.2,29.44,West,270,8.1,8.1,41,0.51,CLR,SCT,1.14,WeatherDisplay:10.37,2013-02-10 23:27:00,
2013-02-10 18:28:00,55.4,32.1,29.44,WSW,248,6.9,6.9,41,0.51,CLR,SCT,1.14,WeatherDisplay:10.37,2013-02-10 23:28:00,
2013-02-10 18:32:00,55.2,32.5,29.44,WNW,292,1.1,1.6,42,0.51,CLR,SCT,1.14,WeatherDisplay:10.37,2013-02-10 23:32:00,
2013-02-10 18:33:00,55.2,32.5,29.44,WNW,292,1.1,1.6,42,0.51,CLR,SCT,1.14,WeatherDisplay:10.37,2013-02-10 23:33:00,
2013-02-10 18:37:00,55.0,32.3,29.45,West,270,11.5,11.5,42,0.00,CLR,SCT,1.14,WeatherDisplay:10.37,2013-02-10 23:37:00,
2013-02-10 18:38:00,55.0,32.3,29.45,West,270,11.5,11.5,42,0.00,CLR,SCT,1.14,WeatherDisplay:10.37,2013-02-10 23:38:00,
2013-02-10 18:42:00,55.0,32.3,29.45,SW,225,2.3,2.3,42,0.00,CLR,SCT,1.14,WeatherDisplay:10.37,2013-02-10 23:42:00,
2013-02-10 18:43:00,55.0,32.3,29.45,SW,225,2.3,2.3,42,0.00,CLR,SCT,1.14,WeatherDisplay:10.37,2013-02-10 23:43:00,
2013-02-10 18:47:00,54.7,32.0,29.45,NNW,338,18.4,18.4,42,0.00,CLR,SCT,1.14,WeatherDisplay:10.37,2013-02-10 23:47:00,
2013-02-10 18:48:00,54.7,32.0,29.45,NNW,338,18.4,18.4,42,0.00,CLR,SCT,1.14,WeatherDisplay:10.37,2013-02-10 23:48:00,
2013-02-10 18:52:00,54.5,31.9,29.46,SW,225,1.1,1.6,42,0.00,CLR,SCT,1.14,WeatherDisplay:10.37,2013-02-10 23:52:00,
2013-02-10 18:53:00,54.5,31.9,29.46,SW,225,1.1,1.6,42,0.00,CLR,SCT,1.14,WeatherDisplay:10.37,2013-02-10 23:53:00,
2013-02-10 18:54:00,54.3,32.3,29.46,WNW,292,6.9,6.9,43,0.00,CLR,SCT,1.14,WeatherDisplay:10.37,2013-02-10 23:54:00,
2013-02-10 18:57:00,54.1,31.5,29.46,WSW,248,13.8,13.8,42,0.00,CLR,SCT,1.14,WeatherDisplay:10.37,2013-02-10 23:57:00,
2013-02-10 18:58:00,54.1,31.5,29.46,WSW,248,13.8,13.8,42,0.00,CLR,SCT,1.14,WeatherDisplay:10.37,2013-02-10 23:58:00,
2013-02-10 18:59:00,54.1,32.1,29.46,WNW,292,6.9,6.9,43,0.00,CLR,SCT,1.14,WeatherDisplay:10.37,2013-02-10 23:59:00,
2013-02-10 19:02:00,54.0,32.0,29.46,West,270,4.6,5.1,43,0.00,CLR,SCT,1.14,WeatherDisplay:10.37,2013-02-11 00:02:00,
2013-02-10 19:03:00,54.0,32.0,29.46,West,270,5.1,5.1,43,0.00,CLR,SCT,1.14,WeatherDisplay:10.37,2013-02-11 00:03:00,
2013-02-10 19:04:00,54.0,32.0,29.46,West,270,4.6,5.1,43,0.00,CLR,SCT,1.14,WeatherDisplay:10.37,2013-02-11 00:04:00,
2013-02-10 19:07:00,53.8,32.4,29.46,West,270,4.6,4.6,44,0.00,CLR,SCT,1.14,WeatherDisplay:10.37,2013-02-11 00:07:00,
2013-02-10 19:08:00,53.4,32.0,29.50,NNW,338,4.7,4.7,44,0.00,CLR,SCT,1.14,WeatherDisplay:10.37,2013-02-11 00:08:00,
2013-02-10 19:09:00,53.4,32.0,29.50,NNW,338,4.7,4.7,44,0.00,CLR,SCT,1.14,WeatherDisplay:10.37,2013-02-11 00:09:00,
2013-02-10 19:13:00,53.2,31.3,29.50,West,270,7.2,7.2,43,0.00,CLR,SCT,1.14,WeatherDisplay:10.37,2013-02-11 00:13:00,
2013-02-10 19:14:00,53.2,31.3,29.47,West,270,2.3,2.3,43,0.00,CLR,SCT,1.14,WeatherDisplay:10.37,2013-02-11 00:14:00,
2013-02-10 19:18:00,52.9,31.5,29.47,West,270,11.5,11.5,44,0.00,CLR,SCT,1.14,WeatherDisplay:10.37,2013-02-11 00:18:00,
2013-02-10 19:19:00,53.1,31.7,29.47,WSW,248,1.1,1.1,44,0.00,CLR,SCT,1.14,WeatherDisplay:10.37,2013-02-11 00:19:00,
2013-02-10 19:23:00,53.1,31.7,29.47,West,270,3.5,3.5,44,0.00,CLR,SCT,1.14,WeatherDisplay:10.37,2013-02-11 00:23:00,
2013-02-10 19:24:00,53.1,31.7,29.47,West,270,3.5,3.5,44,0.00,CLR,SCT,1.14,WeatherDisplay:10.37,2013-02-11 00:24:00,
2013-02-10 19:28:00,52.9,31.5,29.48,NW,315,3.5,3.5,44,0.00,CLR,SCT,1.14,WeatherDisplay:10.37,2013-02-11 00:28:00,
2013-02-10 19:29:00,52.9,31.5,29.48,WSW,248,3.5,3.5,44,0.00,CLR,SCT,1.14,WeatherDisplay:10.37,2013-02-11 00:29:00,
2013-02-10 19:33:00,52.7,31.9,29.48,WSW,248,3.5,3.5,45,0.00,CLR,SCT,1.14,WeatherDisplay:10.37,2013-02-11 00:33:00,
2013-02-10 19:34:00,52.5,32.3,29.48,WNW,292,1.1,1.1,46,0.00,CLR,SCT,1.14,WeatherDisplay:10.37,2013-02-11 00:34:00,
2013-02-10 19:38:00,52.2,31.4,29.48,West,270,3.5,3.5,45,0.00,CLR,SCT,1.14,WeatherDisplay:10.37,2013-02-11 00:38:00,
2013-02-10 19:39:00,52.2,31.4,29.48,West,270,3.5,3.5,45,0.00,CLR,SCT,1.14,WeatherDisplay:10.37,2013-02-11 00:39:00,
2013-02-10 19:43:00,52.2,32.0,29.49,WNW,292,3.5,3.5,46,0.00,CLR,SCT,1.14,WeatherDisplay:10.37,2013-02-11 00:43:00,
2013-02-10 19:44:00,52.2,32.0,29.49,WNW,292,2.3,2.7,46,0.00,CLR,SCT,1.14,WeatherDisplay:10.37,2013-02-11 00:44:00,
2013-02-10 19:48:00,52.0,32.4,29.49,WNW,292,0.0,0.0,47,0.00,CLR,SCT,1.14,WeatherDisplay:10.37,2013-02-11 00:48:00,
2013-02-10 19:49:00,51.6,31.5,29.49,WSW,248,2.3,2.3,46,0.00,CLR,SCT,1.14,WeatherDisplay:10.37,2013-02-11 00:49:00,
2013-02-10 19:53:00,51.4,31.9,29.49,West,270,1.1,1.6,47,0.00,CLR,SCT,1.14,WeatherDisplay:10.37,2013-02-11 00:53:00,
2013-02-10 19:54:00,51.4,31.9,29.49,West,270,1.1,1.6,47,0.00,CLR,SCT,1.14,WeatherDisplay:10.37,2013-02-11 00:54:00,
2013-02-10 19:58:00,51.4,31.9,29.50,West,270,8.1,8.1,47,0.00,CLR,SCT,1.14,WeatherDisplay:10.37,2013-02-11 00:58:00,
2013-02-10 19:59:00,51.4,31.9,29.52,SW,225,3.5,4.0,47,0.00,CLR,SCT,1.14,WeatherDisplay:10.37,2013-02-11 00:59:00,
2013-02-10 20:03:00,51.4,31.9,29.50,WSW,248,1.1,1.1,47,0.00,CLR,SCT,1.14,WeatherDisplay:10.37,2013-02-11 01:03:00,
2013-02-10 20:04:00,51.4,31.9,29.52,WSW,248,1.1,1.1,47,0.00,CLR,SCT,1.14,WeatherDisplay:10.37,2013-02-11 01:04:00,
2013-02-10 20:08:00,51.1,32.1,29.50,West,270,2.3,2.3,48,0.00,CLR,SCT,1.14,WeatherDisplay:10.37,2013-02-11 01:08:00,
2013-02-10 20:09:00,51.1,32.1,29.50,West,270,2.3,2.3,48,0.00,CLR,SCT,1.14,WeatherDisplay:10.37,2013-02-11 01:09:00,
2013-02-10 20:13:00,50.7,31.7,29.50,WSW,248,3.5,3.5,48,0.00,CLR,SCT,1.14,WeatherDisplay:10.37,2013-02-11 01:13:00,
2013-02-10 20:15:00,50.7,31.7,29.50,WSW,248,3.5,3.5,48,0.00,CLR,SCT,1.14,WeatherDisplay:10.37,2013-02-11 01:15:00,
2013-02-10 20:18:00,50.7,32.2,29.51,WSW,248,0.0,0.0,49,0.00,CLR,SCT,1.14,WeatherDisplay:10.37,2013-02-11 01:18:00,
2013-02-10 20:20:00,50.7,32.2,29.51,WSW,248,0.0,0.0,49,0.00,CLR,SCT,1.14,WeatherDisplay:10.37,2013-02-11 01:20:00,
2013-02-10 20:23:00,50.5,32.1,29.51,West,270,1.1,1.1,49,0.00,CLR,SCT,1.14,WeatherDisplay:10.37,2013-02-11 01:23:00,
2013-02-10 20:25:00,50.5,32.1,29.51,WNW,292,1.1,1.6,49,0.00,CLR,SCT,1.14,WeatherDisplay:10.37,2013-02-11 01:25:00,
2013-02-10 20:28:00,50.4,31.9,29.55,West,270,0.0,0.0,49,0.00,CLR,SCT,1.14,WeatherDisplay:10.37,2013-02-11 01:28:00,
2013-02-10 20:29:00,50.4,31.9,29.55,West,270,0.0,0.0,49,0.00,CLR,SCT,1.14,WeatherDisplay:10.37,2013-02-11 01:29:00,
2013-02-10 20:30:00,50.2,31.7,29.52,West,270,0.0,0.0,49,0.00,CLR,SCT,1.14,WeatherDisplay:10.37,2013-02-11 01:30:00,
2013-02-10 20:33:00,49.8,31.9,29.52,NW,315,1.1,1.3,50,0.00,CLR,SCT,1.14,WeatherDisplay:10.37,2013-02-11 01:33:00,
2013-02-10 20:34:00,49.8,31.9,29.52,NW,315,1.1,1.3,50,0.00,CLR,SCT,1.14,WeatherDisplay:10.37,2013-02-11 01:34:00,
2013-02-10 20:35:00,49.8,31.9,29.52,NW,315,1.1,1.3,50,0.00,CLR,SCT,1.14,WeatherDisplay:10.37,2013-02-11 01:35:00,
2013-02-10 20:39:00,49.8,31.9,29.55,West,270,0.0,0.0,50,0.00,CLR,SCT,1.14,WeatherDisplay:10.37,2013-02-11 01:39:00,
2013-02-10 20:40:00,49.6,31.2,29.53,WNW,292,2.3,2.3,49,0.00,CLR,SCT,1.14,WeatherDisplay:10.37,2013-02-11 01:40:00,
2013-02-10 20:44:00,49.6,31.7,29.53,WNW,292,0.4,0.4,50,0.00,CLR,SCT,1.14,WeatherDisplay:10.37,2013-02-11 01:44:00,
2013-02-10 20:45:00,49.6,31.7,29.53,West,270,3.5,3.5,50,0.00,CLR,SCT,1.14,WeatherDisplay:10.37,2013-02-11 01:45:00,
2013-02-10 20:49:00,49.6,30.7,29.54,WNW,292,4.6,4.7,48,0.00,CLR,SCT,1.14,WeatherDisplay:10.37,2013-02-11 01:49:00,
2013-02-10 20:50:00,49.6,30.7,29.54,WNW,292,4.6,4.7,48,0.00,CLR,SCT,1.14,WeatherDisplay:10.37,2013-02-11 01:50:00,
2013-02-10 20:54:00,49.6,30.7,29.54,NNW,338,6.9,6.9,48,0.00,CLR,SCT,1.14,WeatherDisplay:10.37,2013-02-11 01:54:00,
2013-02-10 20:55:00,49.8,31.4,29.54,NW,315,9.2,9.2,49,0.00,CLR,SCT,1.14,WeatherDisplay:10.37,2013-02-11 01:55:00,
2013-02-10 20:59:00,49.8,30.4,29.57,West,270,2.3,2.5,47,0.00,CLR,SCT,1.14,WeatherDisplay:10.37,2013-02-11 01:59:00,
2013-02-10 21:00:00,49.8,30.9,29.55,NW,315,2.3,2.5,48,0.00,CLR,SCT,1.14,WeatherDisplay:10.37,2013-02-11 02:00:00,
2013-02-10 21:04:00,49.6,30.7,29.57,WNW,292,3.5,3.5,48,0.00,CLR,SCT,1.14,WeatherDisplay:10.37,2013-02-11 02:04:00,
2013-02-10 21:05:00,49.6,30.7,29.55,WNW,292,3.5,3.5,48,0.00,CLR,SCT,1.14,WeatherDisplay:10.37,2013-02-11 02:05:00,
2013-02-10 21:09:00,49.5,30.6,29.55,NW,315,8.1,8.1,48,0.00,CLR,SCT,1.14,WeatherDisplay:10.37,2013-02-11 02:09:00,
2013-02-10 21:11:00,49.3,30.4,29.55,NE,45,2.3,2.3,48,0.00,CLR,SCT,1.14,WeatherDisplay:10.37,2013-02-11 02:11:00,
2013-02-10 21:14:00,49.1,30.2,29.55,NW,315,12.7,12.7,48,0.00,CLR,SCT,1.14,WeatherDisplay:10.37,2013-02-11 02:14:00,
2013-02-10 21:16:00,49.1,30.2,29.55,NW,315,12.7,12.7,48,0.00,CLR,SCT,1.14,WeatherDisplay:10.37,2013-02-11 02:16:00,
2013-02-10 21:19:00,49.3,29.9,29.56,WNW,292,11.5,11.5,47,0.00,CLR,SCT,1.14,WeatherDisplay:10.37,2013-02-11 02:19:00,
2013-02-10 21:21:00,49.1,30.7,29.57,NNW,338,11.5,11.5,49,0.00,CLR,SCT,1.14,WeatherDisplay:10.37,2013-02-11 02:21:00,
2013-02-10 21:24:00,48.9,30.1,29.57,WNW,292,21.9,21.9,48,0.00,CLR,SCT,1.14,WeatherDisplay:10.37,2013-02-11 02:24:00,
2013-02-10 21:25:00,48.9,30.1,29.57,WNW,292,21.9,21.9,48,0.00,CLR,SCT,1.14,WeatherDisplay:10.37,2013-02-11 02:25:00,
2013-02-10 21:26:00,48.9,30.6,29.57,West,270,17.3,17.3,49,0.00,CLR,SCT,1.14,WeatherDisplay:10.37,2013-02-11 02:26:00,
2013-02-10 21:29:00,48.7,30.4,29.58,WSW,248,13.8,13.8,49,0.00,CLR,SCT,1.14,WeatherDisplay:10.37,2013-02-11 02:29:00,
2013-02-10 21:30:00,48.7,30.4,29.58,WSW,248,13.8,13.8,49,0.00,CLR,SCT,1.14,WeatherDisplay:10.37,2013-02-11 02:30:00,
2013-02-10 21:31:00,48.6,31.2,29.58,West,270,12.7,12.7,51,0.00,CLR,SCT,1.14,WeatherDisplay:10.37,2013-02-11 02:31:00,
2013-02-10 21:34:00,48.0,30.2,29.59,WNW,292,17.3,17.3,50,0.00,CLR,SCT,1.14,WeatherDisplay:10.37,2013-02-11 02:34:00,
2013-02-10 21:35:00,48.0,30.2,29.59,WNW,292,17.3,17.3,50,0.00,CLR,SCT,1.14,WeatherDisplay:10.37,2013-02-11 02:35:00,
2013-02-10 21:36:00,47.8,30.1,29.59,NW,315,13.8,13.8,50,0.00,CLR,SCT,1.14,WeatherDisplay:10.37,2013-02-11 02:36:00,
2013-02-10 21:39:00,47.8,30.1,29.59,NW,315,3.5,3.5,50,0.00,CLR,SCT,1.14,WeatherDisplay:10.37,2013-02-11 02:39:00,
2013-02-10 21:40:00,47.8,30.1,29.59,NW,315,3.5,3.5,50,0.00,CLR,SCT,1.14,WeatherDisplay:10.37,2013-02-11 02:40:00,
2013-02-10 21:41:00,47.5,30.2,29.59,NW,315,10.4,10.4,51,0.00,CLR,SCT,1.14,WeatherDisplay:10.37,2013-02-11 02:41:00,
2013-02-10 21:44:00,47.3,30.1,29.60,North,0,23.0,23.0,51,0.00,CLR,SCT,1.14,WeatherDisplay:10.37,2013-02-11 02:44:00,
2013-02-10 21:45:00,47.3,30.1,29.60,North,0,23.0,23.0,51,0.00,CLR,SCT,1.14,WeatherDisplay:10.37,2013-02-11 02:45:00,
2013-02-10 21:46:00,47.1,29.9,29.60,NW,315,8.1,8.1,51,0.00,CLR,SCT,1.14,WeatherDisplay:10.37,2013-02-11 02:46:00,
2013-02-10 21:50:00,46.9,30.2,29.61,WNW,292,8.1,8.1,52,0.00,CLR,SCT,1.14,WeatherDisplay:10.37,2013-02-11 02:50:00,
2013-02-10 21:51:00,46.8,30.0,29.60,West,270,12.7,12.7,52,0.00,CLR,SCT,1.14,WeatherDisplay:10.37,2013-02-11 02:51:00,
2013-02-10 21:55:00,46.4,29.7,29.61,West,270,13.8,13.8,52,0.00,CLR,SCT,1.14,WeatherDisplay:10.37,2013-02-11 02:55:00,
2013-02-10 21:56:00,46.2,29.5,29.61,West,270,6.9,6.9,52,0.00,CLR,SCT,1.14,WeatherDisplay:10.37,2013-02-11 02:56:00,
2013-02-10 22:00:00,46.0,29.4,29.61,NW,315,21.9,21.9,52,0.00,CLR,SCT,1.14,WeatherDisplay:10.37,2013-02-11 03:00:00,
2013-02-10 22:01:00,46.0,29.8,29.62,NNW,338,19.6,19.6,53,0.00,CLR,SCT,1.14,WeatherDisplay:10.37,2013-02-11 03:01:00,
2013-02-10 22:05:00,45.9,29.7,29.62,NNW,338,3.6,3.6,53,0.00,CLR,SCT,1.14,WeatherDisplay:10.37,2013-02-11 03:05:00,
2013-02-10 22:06:00,45.9,29.7,29.62,NNW,338,3.5,3.6,53,0.00,CLR,SCT,1.14,WeatherDisplay:10.37,2013-02-11 03:06:00,
2013-02-10 22:10:00,45.3,28.7,29.65,WNW,292,13.2,13.2,52,0.00,CLR,SCT,1.14,WeatherDisplay:10.37,2013-02-11 03:10:00,
2013-02-10 22:11:00,45.3,28.7,29.62,WSW,248,16.1,16.1,52,0.00,CLR,SCT,1.14,WeatherDisplay:10.37,2013-02-11 03:11:00,
2013-02-10 22:15:00,45.1,29.0,29.63,NNW,338,3.5,3.5,53,0.00,CLR,SCT,1.14,WeatherDisplay:10.37,2013-02-11 03:15:00,
2013-02-10 22:16:00,45.0,28.8,29.63,WNW,292,19.6,19.6,53,0.00,CLR,SCT,1.14,WeatherDisplay:10.37,2013-02-11 03:16:00,
2013-02-10 22:20:00,45.0,28.8,29.63,NNW,338,12.1,12.1,53,0.00,CLR,SCT,1.14,WeatherDisplay:10.37,2013-02-11 03:20:00,
2013-02-10 22:21:00,44.8,28.7,29.63,NNW,338,13.8,13.8,53,0.00,CLR,SCT,1.14,WeatherDisplay:10.37,2013-02-11 03:21:00,
2013-02-10 22:25:00,44.8,29.1,29.64,NW,315,2.3,2.3,54,0.00,CLR,SCT,1.14,WeatherDisplay:10.37,2013-02-11 03:25:00,
2013-02-10 22:26:00,44.4,28.3,29.64,ESE,112,12.7,12.7,53,0.00,CLR,SCT,1.14,WeatherDisplay:10.37,2013-02-11 03:26:00,
2013-02-10 22:30:00,44.4,28.3,29.64,West,270,3.5,3.8,53,0.00,CLR,SCT,1.14,WeatherDisplay:10.37,2013-02-11 03:30:00,
2013-02-10 22:31:00,44.4,28.3,29.67,West,270,3.5,3.8,53,0.00,CLR,SCT,1.14,WeatherDisplay:10.37,2013-02-11 03:31:00,
2013-02-10 22:35:00,44.2,28.6,29.65,NW,315,10.5,10.5,54,0.00,CLR,SCT,1.14,WeatherDisplay:10.37,2013-02-11 03:35:00,
2013-02-10 22:37:00,44.2,28.2,29.65,WNW,292,10.4,10.4,53,0.00,CLR,SCT,1.14,WeatherDisplay:10.37,2013-02-11 03:37:00,
2013-02-10 22:40:00,43.9,28.3,29.65,North,0,13.8,13.8,54,0.00,CLR,SCT,1.14,WeatherDisplay:10.37,2013-02-11 03:40:00,
2013-02-10 22:42:00,43.9,28.3,29.65,NNW,338,11.5,11.5,54,0.00,CLR,SCT,1.14,WeatherDisplay:10.37,2013-02-11 03:42:00,
2013-02-10 22:45:00,43.7,28.6,29.66,NW,315,2.3,2.7,55,0.00,CLR,SCT,1.14,WeatherDisplay:10.37,2013-02-11 03:45:00,
2013-02-10 22:46:00,43.7,28.6,29.66,NW,315,2.3,2.7,55,0.00,CLR,SCT,1.14,WeatherDisplay:10.37,2013-02-11 03:46:00,
2013-02-10 22:47:00,43.5,28.4,29.66,NW,315,6.9,6.9,55,0.00,CLR,SCT,1.14,WeatherDisplay:10.37,2013-02-11 03:47:00,
2013-02-10 22:50:00,43.3,27.8,29.66,WNW,292,15.0,15.0,54,0.00,CLR,SCT,1.14,WeatherDisplay:10.37,2013-02-11 03:50:00,
2013-02-10 22:51:00,43.3,27.8,29.66,WNW,292,15.0,15.0,54,0.00,CLR,SCT,1.14,WeatherDisplay:10.37,2013-02-11 03:51:00,
2013-02-10 22:52:00,43.3,27.8,29.66,WNW,292,8.1,8.1,54,0.00,CLR,SCT,1.14,WeatherDisplay:10.37,2013-02-11 03:52:00,
2013-02-10 22:55:00,43.2,28.1,29.66,WNW,292,3.5,3.5,55,0.00,CLR,SCT,1.14,WeatherDisplay:10.37,2013-02-11 03:55:00,
2013-02-10 22:56:00,43.2,27.6,29.66,WNW,292,0.0,0.0,54,0.00,CLR,SCT,1.14,WeatherDisplay:10.37,2013-02-11 03:56:00,
2013-02-10 22:57:00,43.2,27.6,29.66,WNW,292,0.0,0.0,54,0.00,CLR,SCT,1.14,WeatherDisplay:10.37,2013-02-11 03:57:00,
2013-02-10 23:00:00,43.0,27.9,29.67,West,270,4.6,4.7,55,0.00,CLR,SCT,1.14,WeatherDisplay:10.37,2013-02-11 04:00:00,
2013-02-10 23:01:00,43.0,28.3,29.67,NNW,338,10.4,10.4,56,0.00,CLR,SCT,1.14,WeatherDisplay:10.37,2013-02-11 04:01:00,
2013-02-10 23:02:00,43.0,28.3,29.67,NNW,338,10.4,10.4,56,0.00,CLR,SCT,1.14,WeatherDisplay:10.37,2013-02-11 04:02:00,
2013-02-10 23:05:00,42.8,27.7,29.67,West,270,8.1,8.1,55,0.00,CLR,SCT,1.14,WeatherDisplay:10.37,2013-02-11 04:05:00,
2013-02-10 23:06:00,42.8,27.7,29.67,NNW,338,10.4,10.4,55,0.00,CLR,SCT,1.14,WeatherDisplay:10.37,2013-02-11 04:06:00,
2013-02-10 23:07:00,42.8,27.7,29.67,NNW,338,10.4,10.4,55,0.00,CLR,SCT,1.14,WeatherDisplay:10.37,2013-02-11 04:07:00,
2013-02-10 23:10:00,42.8,27.7,29.67,WNW,292,1.1,1.1,55,0.00,CLR,SCT,1.14,WeatherDisplay:10.37,2013-02-11 04:10:00,
2013-02-10 23:11:00,42.8,27.7,29.67,WNW,292,1.1,1.1,55,0.00,CLR,SCT,1.14,WeatherDisplay:10.37,2013-02-11 04:11:00,
2013-02-10 23:12:00,42.6,27.6,29.67,West,270,6.9,6.9,55,0.00,CLR,SCT,1.14,WeatherDisplay:10.37,2013-02-11 04:12:00,
2013-02-10 23:15:00,42.6,27.6,29.70,NW,315,3.5,3.5,55,0.00,CLR,SCT,1.14,WeatherDisplay:10.37,2013-02-11 04:15:00,
2013-02-10 23:16:00,42.6,27.6,29.70,NW,315,3.5,3.5,55,0.00,CLR,SCT,1.14,WeatherDisplay:10.37,2013-02-11 04:16:00,
2013-02-10 23:17:00,42.6,27.6,29.68,NW,315,3.5,3.5,55,0.00,CLR,SCT,1.14,WeatherDisplay:10.37,2013-02-11 04:17:00,
2013-02-10 23:20:00,42.6,27.6,29.68,NW,315,12.7,12.7,55,0.00,CLR,SCT,1.14,WeatherDisplay:10.37,2013-02-11 04:20:00,
2013-02-10 23:21:00,42.6,27.6,29.68,NW,315,12.7,12.7,55,0.00,CLR,SCT,1.14,WeatherDisplay:10.37,2013-02-11 04:21:00,
2013-02-10 23:22:00,42.6,27.1,29.68,West,270,12.7,12.7,54,0.00,CLR,SCT,1.14,WeatherDisplay:10.37,2013-02-11 04:22:00,
2013-02-10 23:25:00,42.6,27.1,29.68,NW,315,8.1,8.1,54,0.00,CLR,SCT,1.14,WeatherDisplay:10.37,2013-02-11 04:25:00,
2013-02-10 23:26:00,42.6,27.6,29.68,WNW,292,2.5,2.5,55,0.00,CLR,SCT,1.14,WeatherDisplay:10.37,2013-02-11 04:26:00,
2013-02-10 23:27:00,42.6,27.6,29.68,WNW,292,2.5,2.5,55,0.00,CLR,SCT,1.14,WeatherDisplay:10.37,2013-02-11 04:27:00,
2013-02-10 23:30:00,42.4,27.8,29.68,West,270,2.3,2.3,56,0.00,CLR,SCT,1.14,WeatherDisplay:10.37,2013-02-11 04:30:00,
2013-02-10 23:31:00,42.4,27.8,29.68,West,270,2.3,2.3,56,0.00,CLR,SCT,1.14,WeatherDisplay:10.37,2013-02-11 04:31:00,
2013-02-10 23:32:00,42.4,27.8,29.68,WNW,292,6.9,6.9,56,0.00,CLR,SCT,1.14,WeatherDisplay:10.37,2013-02-11 04:32:00,
2013-02-10 23:35:00,42.4,27.8,29.68,NNW,338,12.7,12.7,56,0.00,CLR,SCT,1.14,WeatherDisplay:10.37,2013-02-11 04:35:00,
2013-02-10 23:36:00,42.3,27.2,29.68,WNW,292,12.7,12.7,55,0.00,CLR,SCT,1.14,WeatherDisplay:10.37,2013-02-11 04:36:00,
2013-02-10 23:37:00,42.3,27.7,29.68,NW,315,15.2,15.2,56,0.00,CLR,SCT,1.14,WeatherDisplay:10.37,2013-02-11 04:37:00,
2013-02-10 23:40:00,42.3,27.2,29.68,WNW,292,8.1,8.1,55,0.00,CLR,SCT,1.14,WeatherDisplay:10.37,2013-02-11 04:40:00,
2013-02-10 23:41:00,42.3,27.7,29.68,NW,315,3.5,3.8,56,0.00,CLR,SCT,1.14,WeatherDisplay:10.37,2013-02-11 04:41:00,
2013-02-10 23:42:00,42.3,27.7,29.68,NW,315,3.5,3.8,56,0.00,CLR,SCT,1.14,WeatherDisplay:10.37,2013-02-11 04:42:00,
2013-02-10 23:45:00,42.1,27.5,29.69,NW,315,1.1,1.1,56,0.00,CLR,SCT,1.14,WeatherDisplay:10.37,2013-02-11 04:45:00,
2013-02-10 23:46:00,41.9,27.3,29.69,WSW,248,11.5,11.5,56,0.00,CLR,SCT,1.14,WeatherDisplay:10.37,2013-02-11 04:46:00,
2013-02-10 23:47:00,41.9,27.3,29.69,NNW,338,11.5,11.5,56,0.00,CLR,SCT,1.14,WeatherDisplay:10.37,2013-02-11 04:47:00,
2013-02-10 23:50:00,41.9,27.3,29.69,NW,315,9.2,9.2,56,0.00,CLR,SCT,1.14,WeatherDisplay:10.37,2013-02-11 04:50:00,
2013-02-10 23:51:00,41.7,27.6,29.69,NW,315,1.1,1.3,57,0.00,CLR,SCT,1.14,WeatherDisplay:10.37,2013-02-11 04:51:00,
2013-02-10 23:52:00,41.7,27.6,29.69,NW,315,1.3,1.3,57,0.00,CLR,SCT,1.14,WeatherDisplay:10.37,2013-02-11 04:52:00,
2013-02-10 23:56:00,41.7,27.6,29.69,West,270,6.9,6.9,57,0.00,CLR,SCT,1.14,WeatherDisplay:10.37,2013-02-11 04:56:00,
2013-02-10 23:57:00,41.5,27.0,29.69,NNW,338,4.6,4.6,56,0.00,CLR,SCT,1.14,WeatherDisplay:10.37,2013-02-11 04:57:00,